M I D A S
Marine Information and Data Acquisition System
Tripno 802 of the Zeeleeuw from 2004-11-05 12:23:18 to 2004-11-05 15:29:03
Back to CruiseResearch ActivitiesStationsMapUnderway DataData graphs

EquipmentUnitsComment
TimeDGPSUTC
LatitudeDGPSDM.mWGS84
LongitudeDGPSDM.mWGS84
TemperatureSBE03/SBE38deg celciusITS90
ConductivitySBE21S/mITS90
SalinitySBE21 Practical Salinity Units
ChlorophylAChelsea fluorimeterg/lCalibrated in Aceton
Missing or incorrect values are displayed as -999
Sea surface data collected by the RV Zeeleeuw from 2004-11-05 08:18:08 to 2004-11-05 15:31:42
                                                                                    Next 1000 lines
Time Latitude Longitude Temperature Conductivity Salinity ChlorophylA
2004-11-05 08:18:18 51°13.596 2°56.112 18.116772 0.011416 0.065626 -0.814958
2004-11-05 08:18:24 51°13.596 2°56.112 18.096544 0.011416 0.065625 -0.848668
2004-11-05 08:18:28 51°13.595 2°56.112 18.023243 0.011416 0.065626 -0.814958
2004-11-05 08:18:34 51°13.596 2°56.11 18.023243 0.011416 0.065626 -0.814958
2004-11-05 08:18:38 51°13.596 2°56.108 18.3102 0.011416 0.065626 -0.848668
2004-11-05 08:18:43 51°13.597 2°56.104 18.196006 0.011416 0.065626 -0.848668
2004-11-05 08:18:48 51°13.598 2°56.1 18.240536 0.011416 0.065626 -0.814958
2004-11-05 08:18:52 51°13.599 2°56.096 18.283646 0.011416 0.065626 -0.814958
2004-11-05 08:19:00 51°13.601 2°56.088 18.205994 0.011416 0.065626 -0.781249
2004-11-05 08:19:04 51°13.602 2°56.083 18.205994 0.011416 0.065626 -0.781249
2004-11-05 08:19:10 51°13.604 2°56.076 18.264499 0.011416 0.065626 -0.848668
2004-11-05 08:19:14 51°13.605 2°56.071 18.218454 0.011416 0.065626 -0.814958
2004-11-05 08:19:20 51°13.607 2°56.063 18.203789 0.011416 0.065626 -0.848668
2004-11-05 08:19:24 51°13.608 2°56.057 18.217195 0.011416 0.065626 -0.814958
2004-11-05 08:19:30 51°13.61 2°56.048 18.196051 0.011416 0.065625 -0.814958
2004-11-05 08:19:34 51°13.611 2°56.042 18.196051 0.011416 0.065625 -0.814958
2004-11-05 08:19:39 51°13.613 2°56.035 18.192316 0.011416 0.065626 -0.814958
2004-11-05 08:19:42 51°13.615 2°56.03 18.169994 0.011416 0.065626 -0.848668
2004-11-05 08:19:50 51°13.619 2°56.018 18.214091 0.011416 0.065625 -0.848668
2004-11-05 08:19:54 51°13.621 2°56.011 18.233206 0.011416 0.065626 -0.814958
2004-11-05 08:19:58 51°13.623 2°56.005 18.238603 0.011416 0.065625 -0.781249
2004-11-05 08:20:02 51°13.625 2°55.998 18.238603 0.011416 0.065625 -0.781249
2004-11-05 08:20:10 51°13.63 2°55.985 18.233296 0.011416 0.065625 -0.814958
2004-11-05 08:20:14 51°13.633 2°55.979 18.222143 0.011416 0.065625 -0.848668
2004-11-05 08:20:20 51°13.636 2°55.969 18.208513 0.011416 0.065625 -0.848668
2004-11-05 08:20:22 51°13.638 2°55.966 18.190111 0.011416 0.065625 -0.814958
2004-11-05 08:20:30 51°13.643 2°55.953 18.188716 0.011416 0.065626 -0.814958
2004-11-05 08:20:34 51°13.646 2°55.946 18.188716 0.011416 0.065626 -0.814958
2004-11-05 08:20:40 51°13.65 2°55.936 18.181831 0.011416 0.065626 -0.814958
2004-11-05 08:20:42 51°13.652 2°55.932 18.188176 0.011416 0.065625 -0.814958
2004-11-05 08:20:48 51°13.656 2°55.922 18.197536 0.011416 0.065625 -0.814958
2004-11-05 08:20:54 51°13.66 2°55.911 18.186871 0.011416 0.065625 -0.814958
2004-11-05 08:21:00 51°13.664 2°55.9 18.206984 0.011416 0.065625 -0.814958
2004-11-05 08:21:02 51°13.666 2°55.897 18.206984 0.011416 0.065625 -0.814958
2004-11-05 08:21:10 51°13.671 2°55.882 18.209368 0.011416 0.065626 -0.814958
2004-11-05 08:21:14 51°13.674 2°55.875 18.195691 0.011416 0.065625 -0.848668
2004-11-05 08:21:18 51°13.677 2°55.868 18.210897 0.011416 0.065626 -0.848668
2004-11-05 08:21:22 51°13.68 2°55.861 18.196501 0.011416 0.065625 -0.814958
2004-11-05 08:21:30 51°13.684 2°55.847 18.196816 0.011416 0.065625 -0.814958
2004-11-05 08:21:34 51°13.686 2°55.84 18.196816 0.011416 0.065625 -0.814958
2004-11-05 08:21:38 51°13.689 2°55.833 18.194296 0.011416 0.065626 -0.814958
2004-11-05 08:21:42 51°13.691 2°55.826 18.195061 0.011416 0.065626 -0.848668
2004-11-05 08:21:50 51°13.695 2°55.812 18.190021 0.011416 0.065624 -0.814958
2004-11-05 08:21:55 51°13.698 2°55.802 18.192946 0.011416 0.065626 -0.814958
2004-11-05 08:21:58 51°13.699 2°55.796 18.1983 0.011416 0.065626 -0.814958
2004-11-05 08:22:04 51°13.702 2°55.784 18.1983 0.011416 0.065626 -0.814958
2004-11-05 08:22:10 51°13.705 2°55.772 18.197671 0.011416 0.065625 -0.814958
2004-11-05 08:22:14 51°13.707 2°55.764 18.215036 0.011416 0.065625 -0.814958
2004-11-05 08:22:20 51°13.709 2°55.754 18.203429 0.011416 0.065625 -0.814958
2004-11-05 08:22:22 51°13.71 2°55.751 18.209458 0.011416 0.065626 -0.814958
2004-11-05 08:22:30 51°13.711 2°55.742 18.212967 0.011416 0.065625 -0.814958
2004-11-05 08:22:34 51°13.711 2°55.739 18.212967 0.011416 0.065625 -0.814958
2004-11-05 08:22:38 51°13.711 2°55.738 18.211032 0.011416 0.065624 -0.848668
2004-11-05 08:22:44 51°13.712 2°55.739 18.223897 0.011416 0.065625 -0.848668
2004-11-05 08:22:48 51°13.712 2°55.74 18.221243 0.011416 0.065624 -0.848668
2004-11-05 08:22:54 51°13.713 2°55.744 18.313704 0.011416 0.065625 -0.814958
2004-11-05 08:22:57 51°13.714 2°55.746 18.230643 0.011416 0.065625 -0.814958
2004-11-05 08:23:03 51°13.715 2°55.75 18.230643 0.011416 0.065625 -0.814958
2004-11-05 08:23:08 51°13.716 2°55.753 18.169364 0.011416 0.065625 -0.814958
2004-11-05 08:23:12 51°13.716 2°55.754 18.170309 0.011416 0.065624 -0.814958
2004-11-05 08:23:18 51°13.716 2°55.755 18.194701 0.011416 0.065625 -0.814958
2004-11-05 08:23:24 51°13.715 2°55.754 18.174585 0.011416 0.065624 -0.814958
2004-11-05 08:23:26 51°13.715 2°55.754 18.137174 0.011416 0.065624 -0.781249
2004-11-05 08:23:34 51°13.713 2°55.751 18.137174 0.011416 0.065624 -0.781249
2004-11-05 08:23:38 51°13.712 2°55.75 18.196816 0.011416 0.065624 -0.848668
2004-11-05 08:23:42 51°13.711 2°55.749 18.194296 0.011416 0.065623 -0.848668
2004-11-05 08:23:48 51°13.71 2°55.748 18.2489 0.011416 0.065622 -0.814958
2004-11-05 08:23:54 51°13.71 2°55.749 18.305753 0.011416 0.065621 -0.814958
2004-11-05 08:23:58 51°13.71 2°55.751 18.2489 0.011416 0.06562 -0.814958
2004-11-05 08:24:04 51°13.712 2°55.754 18.2489 0.011416 0.06562 -0.814958
2004-11-05 08:24:10 51°13.714 2°55.756 18.250518 0.011416 0.065621 -0.814958
2004-11-05 08:24:14 51°13.716 2°55.758 18.239412 0.011416 0.06562 -0.814958
2004-11-05 08:24:18 51°13.718 2°55.76 18.224796 0.011416 0.065621 -0.848668
2004-11-05 08:24:22 51°13.72 2°55.762 18.169364 0.011416 0.065621 -0.848668
2004-11-05 08:24:26 51°13.721 2°55.763 18.21778 0.011416 0.065622 -0.814958
2004-11-05 08:24:34 51°13.722 2°55.764 18.21778 0.011416 0.065622 -0.814958
2004-11-05 08:24:38 51°13.722 2°55.765 18.237074 0.011416 0.065622 -0.814958
2004-11-05 08:24:44 51°13.721 2°55.765 18.142848 0.011416 0.065622 -0.848668
2004-11-05 08:24:48 51°13.719 2°55.765 18.256228 0.011416 0.065624 -0.848668
2004-11-05 08:24:54 51°13.717 2°55.764 18.299328 0.011416 0.065624 -0.814958
2004-11-05 08:24:58 51°13.716 2°55.765 18.239412 0.011416 0.065623 -0.848668
2004-11-05 08:25:04 51°13.716 2°55.766 18.239412 0.011416 0.065623 -0.848668
2004-11-05 08:25:10 51°13.717 2°55.766 18.260813 0.011416 0.065622 -0.814958
2004-11-05 08:25:14 51°13.719 2°55.767 18.258656 0.011416 0.065622 -0.814958
2004-11-05 08:25:19 51°13.721 2°55.768 18.298789 0.011416 0.065622 -0.814958
2004-11-05 08:25:22 51°13.722 2°55.768 18.241616 0.011416 0.065624 -0.781249
2004-11-05 08:25:28 51°13.724 2°55.768 18.163152 0.011416 0.065624 -0.781249
2004-11-05 08:25:34 51°13.723 2°55.769 18.163152 0.011416 0.065624 -0.781249
2004-11-05 08:25:39 51°13.723 2°55.77 18.223447 0.011416 0.065626 -0.814958
2004-11-05 08:25:44 51°13.721 2°55.771 18.270478 0.011416 0.065626 -0.814958
2004-11-05 08:25:48 51°13.719 2°55.772 18.282792 0.011416 0.065626 -0.814958
2004-11-05 08:25:52 51°13.717 2°55.772 18.345232 0.011416 0.065626 -0.848668
2004-11-05 08:25:59 51°13.715 2°55.774 18.297621 0.011416 0.065626 -0.814958
2004-11-05 08:26:02 51°13.715 2°55.774 18.297621 0.011416 0.065626 -0.814958
2004-11-05 08:26:10 51°13.716 2°55.773 18.323092 0.011416 0.065626 -0.814958
2004-11-05 08:26:14 51°13.718 2°55.772 18.39631 0.011416 0.065627 -0.848668
2004-11-05 08:26:20 51°13.721 2°55.769 18.386528 0.011416 0.065626 -0.848668
2004-11-05 08:26:22 51°13.723 2°55.767 18.401066 0.011416 0.065628 -0.848668
2004-11-05 08:26:28 51°13.727 2°55.762 18.281938 0.011416 0.065628 -0.814958
2004-11-05 08:26:34 51°13.732 2°55.755 18.281938 0.011416 0.065628 -0.814958
2004-11-05 08:26:38 51°13.736 2°55.75 16.227507 0.011416 0.06565 -0.814958
2004-11-05 08:26:44 51°13.743 2°55.741 14.029303 0.011416 0.065642 -0.814958
2004-11-05 08:26:46 51°13.745 2°55.738 13.058838 0.06129 0.343876 0.93793
2004-11-05 08:27:02 51°13.763 2°55.711 12.4295 3.511511 26.288997 0.870512
2004-11-05 08:27:08 51°13.771 2°55.7 12.308359 3.733006 28.985568 1.612118
2004-11-05 08:27:14 51°13.78 2°55.689 12.139568 3.529455 28.49593 2.421144
2004-11-05 08:27:19 51°13.787 2°55.68 12.118857 3.561387 29.352659 2.589691
2004-11-05 08:27:23 51°13.793 2°55.672 12.07717 3.483749 29.104093 2.555982
2004-11-05 08:27:30 51°13.805 2°55.659 12.025874 3.418229 28.684513 2.724529
2004-11-05 08:27:34 51°13.812 2°55.652 12.025874 3.418229 28.684513 2.724529
2004-11-05 08:27:39 51°13.821 2°55.643 11.995147 3.411174 28.771276 2.65711
2004-11-05 08:27:44 51°13.831 2°55.634 12.021942 3.060295 25.599061 2.555982
2004-11-05 08:27:57 51°13.858 2°55.614 11.943346 3.360407 28.520814 2.555982
2004-11-05 08:28:02 51°13.869 2°55.606 11.946446 3.321333 28.201567 2.421144
2004-11-05 08:28:06 51°13.878 2°55.599 11.842238 3.342924 28.417136 2.488563
2004-11-05 08:28:12 51°13.891 2°55.59 11.862836 3.354089 28.562981 2.454853
2004-11-05 08:28:16 51°13.9 2°55.583 11.849236 3.352088 28.559699 2.353725
2004-11-05 08:28:22 51°13.914 2°55.574 11.849236 3.352088 28.559699 2.353725
2004-11-05 08:28:26 51°13.923 2°55.567 11.811477 3.340924 28.473517 2.252597
2004-11-05 08:28:32 51°13.937 2°55.558 11.807976 3.358619 28.675561 2.151469
2004-11-05 08:28:36 51°13.946 2°55.551 11.804574 3.349245 28.611027 2.151469
2004-11-05 08:28:42 51°13.96 2°55.541 11.780308 3.34261 28.562704 2.185178
2004-11-05 08:28:47 51°13.971 2°55.533 11.770046 3.353986 28.690346 2.117759
2004-11-05 08:28:52 51°13.983 2°55.525 11.770046 3.353986 28.690346 2.117759
2004-11-05 08:28:57 51°13.995 2°55.517 11.762201 3.359568 28.764494 2.08405
2004-11-05 08:29:02 51°14.006 2°55.508 11.736686 3.34714 28.649678 2.016631
2004-11-05 08:29:06 51°14.015 2°55.501 11.762053 3.342506 28.62147 2.050341
2004-11-05 08:29:10 51°14.025 2°55.495 11.746113 3.340821 28.619405 1.949212
2004-11-05 08:29:16 51°14.039 2°55.485 11.733773 3.34714 28.69272 1.949212
2004-11-05 08:29:22 51°14.052 2°55.474 11.733773 3.34714 28.69272 1.949212
2004-11-05 08:29:26 51°14.062 2°55.467 11.761263 3.344297 28.678467 1.949212
2004-11-05 08:29:32 51°14.076 2°55.457 11.783317 3.35346 28.772823 1.949212
2004-11-05 08:29:38 51°14.09 2°55.446 11.778137 3.367469 28.905998 2.016631
2004-11-05 08:29:42 51°14.1 2°55.439 11.780308 3.372209 28.958437 1.915503
2004-11-05 08:29:47 51°14.112 2°55.43 11.78963 3.360306 28.843396 1.881794
2004-11-05 08:29:52 51°14.125 2°55.421 11.78963 3.360306 28.843396 1.881794
2004-11-05 08:29:56 51°14.135 2°55.412 11.77498 3.39654 29.18016 1.881794
2004-11-05 08:30:02 51°14.15 2°55.399 11.764471 3.404861 29.255064 1.949212
2004-11-05 08:30:04 51°14.155 2°55.394 11.778532 3.416975 29.366098 1.915503
2004-11-05 08:30:12 51°14.175 2°55.375 11.773796 3.430458 29.49646 1.848084
2004-11-05 08:30:15 51°14.182 2°55.367 11.756625 3.423085 29.430542 1.848084
2004-11-05 08:30:20 51°14.195 2°55.355 11.756625 3.423085 29.430542 1.848084
2004-11-05 08:30:27 51°14.212 2°55.336 11.759092 3.436147 29.559457 1.848084
2004-11-05 08:30:32 51°14.224 2°55.32 11.747051 3.416343 29.363808 1.848084
2004-11-05 08:30:44 51°14.251 2°55.282 11.751838 3.424243 29.449072 2.050341
2004-11-05 08:30:48 51°14.26 2°55.268 11.769158 3.440676 29.612704 1.915503
2004-11-05 08:30:54 51°14.271 2°55.247 11.743892 3.433092 29.54973 1.949212
2004-11-05 08:30:58 51°14.279 2°55.232 11.743892 3.425508 29.476113 1.949212
2004-11-05 08:31:04 51°14.292 2°55.21 11.743892 3.425508 29.476113 1.949212
2004-11-05 08:31:09 51°14.303 2°55.191 11.758747 3.435304 29.571468 1.848084
2004-11-05 08:31:14 51°14.31 2°55.172 11.753318 3.426772 29.488172 1.848084
2004-11-05 08:31:18 51°14.318 2°55.156 11.745323 3.438359 29.601882 1.746956
2004-11-05 08:31:24 51°14.328 2°55.132 11.736192 3.434146 29.566051 1.848084
2004-11-05 08:31:30 51°14.339 2°55.107 11.735896 3.437727 29.60087 1.814375
2004-11-05 08:31:34 51°14.345 2°55.089 11.735896 3.437727 29.60087 1.814375
2004-11-05 08:31:38 51°14.352 2°55.071 11.771526 3.444153 29.665373 1.814375
2004-11-05 08:31:42 51°14.359 2°55.054 11.783169 3.445522 29.68286 1.780665
2004-11-05 08:31:50 51°14.373 2°55.021 11.791011 3.446997 29.70073 1.746956
2004-11-05 08:31:54 51°14.38 2°55.005 11.793527 3.425508 29.494873 1.746956
2004-11-05 08:31:58 51°14.387 2°54.988 11.795746 3.459428 29.810678 1.746956
2004-11-05 08:32:04 51°14.398 2°54.964 11.795746 3.459428 29.810678 1.746956
2004-11-05 08:32:08 51°14.406 2°54.948 11.798113 3.473544 29.932931 1.746956
2004-11-05 08:32:14 51°14.419 2°54.925 11.790715 3.486606 30.049553 1.780665
2004-11-05 08:32:18 51°14.428 2°54.91 11.794365 3.503146 30.201997 1.848084
2004-11-05 08:32:24 51°14.441 2°54.887 11.767086 3.510205 30.261196 1.814375
2004-11-05 08:32:30 51°14.455 2°54.862 11.772908 3.527693 30.424705 1.814375
2004-11-05 08:32:34 51°14.463 2°54.845 11.772908 3.527693 30.424705 1.814375
2004-11-05 08:32:38 51°14.471 2°54.827 11.743398 3.528641 30.437652 1.746956
2004-11-05 08:32:44 51°14.483 2°54.801 11.748926 3.552979 30.674696 1.713247
2004-11-05 08:32:48 51°14.49 2°54.783 11.761806 3.565833 30.808395 2.151469
2004-11-05 08:32:58 51°14.508 2°54.736 11.764668 3.601129 31.163833 2.488563
2004-11-05 08:33:04 51°14.519 2°54.707 11.796683 3.633688 31.48243 2.555982
2004-11-05 08:33:10 51°14.529 2°54.677 11.796683 3.633688 31.48243 2.555982
2004-11-05 08:33:14 51°14.535 2°54.656 11.802503 3.652549 31.664132 2.65711
2004-11-05 08:33:20 51°14.544 2°54.625 11.805165 3.677101 31.900876 2.6234
2004-11-05 08:33:24 51°14.55 2°54.603 11.813351 3.657396 31.706812 2.690819
2004-11-05 08:33:30 51°14.557 2°54.572 11.808321 3.685426 31.967629 2.758238
2004-11-05 08:33:34 51°14.563 2°54.551 11.808568 3.702919 32.130987 2.690819
2004-11-05 08:33:40 51°14.57 2°54.519 11.808568 3.702919 32.130987 2.690819
2004-11-05 08:33:44 51°14.575 2°54.498 11.806201 3.720623 32.290974 2.555982
2004-11-05 08:33:50 51°14.583 2°54.466 11.818626 3.734849 32.420142 2.65711
2004-11-05 08:33:54 51°14.588 2°54.445 11.843175 3.726524 32.33905 2.421144
2004-11-05 08:34:00 51°14.595 2°54.413 11.869389 3.737905 32.450354 2.522272
2004-11-05 08:34:04 51°14.6 2°54.393 11.893623 3.743491 32.50708 2.589691
2004-11-05 08:34:10 51°14.608 2°54.36 11.893623 3.743491 32.50708 2.589691
2004-11-05 08:34:14 51°14.613 2°54.339 11.894805 3.734955 32.419785 2.387435
2004-11-05 08:34:20 51°14.621 2°54.305 11.916963 3.753818 32.586868 2.454853
2004-11-05 08:34:22 51°14.624 2°54.294 11.925184 3.779849 32.821834 2.353725
2004-11-05 08:34:30 51°14.635 2°54.249 11.943248 3.779954 32.804087 2.286306
2004-11-05 08:34:34 51°14.641 2°54.227 11.953926 3.799768 32.982351 2.016631
2004-11-05 08:34:40 51°14.65 2°54.195 11.953926 3.799768 32.982351 2.016631
2004-11-05 08:34:44 51°14.657 2°54.173 11.96539 3.812836 33.096112 2.016631
2004-11-05 08:34:50 51°14.666 2°54.141 11.964898 3.82443 33.201909 2.016631
2004-11-05 08:34:54 51°14.673 2°54.12 11.97631 3.817157 33.114074 2.117759
2004-11-05 08:34:58 51°14.679 2°54.099 11.983 3.828118 33.210189 2.08405
2004-11-05 08:35:06 51°14.693 2°54.056 11.992295 3.84572 33.370492 1.915503
2004-11-05 08:35:10 51°14.7 2°54.036 11.992295 3.84572 33.370492 1.915503
2004-11-05 08:35:14 51°14.707 2°54.014 11.994262 3.847828 33.386643 1.915503
2004-11-05 08:35:18 51°14.714 2°53.994 11.999277 3.850568 33.406082 1.915503
2004-11-05 08:35:24 51°14.724 2°53.962 12.000851 3.846352 33.356168 1.881794
2004-11-05 08:35:30 51°14.733 2°53.931 12.007587 3.853414 33.418773 1.848084
2004-11-05 08:35:34 51°14.739 2°53.911 12.00798 3.84203 33.301756 1.848084
2004-11-05 08:35:40 51°14.749 2°53.88 12.00798 3.84203 33.301756 1.848084
2004-11-05 08:35:44 51°14.756 2°53.859 12.016633 3.856259 33.436395 1.713247
2004-11-05 08:35:50 51°14.766 2°53.829 12.021745 3.862583 33.493977 2.117759
2004-11-05 08:35:54 51°14.773 2°53.808 12.034033 3.87091 33.570214 1.814375
2004-11-05 08:36:00 51°14.782 2°53.778 12.038112 3.869961 33.560336 1.746956
2004-11-05 08:36:04 51°14.789 2°53.757 12.039881 3.88008 33.651772 1.713247
2004-11-05 08:36:10 51°14.799 2°53.726 12.039881 3.88008 33.651772 1.713247
2004-11-05 08:36:14 51°14.807 2°53.705 12.041012 3.881028 33.657394 1.679537
2004-11-05 08:36:20 51°14.818 2°53.673 12.04509 3.876391 33.606182 1.881794
2004-11-05 08:36:24 51°14.825 2°53.653 12.045336 3.88008 33.63758 1.679537
2004-11-05 08:36:30 51°14.835 2°53.622 12.051527 3.860369 33.441537 2.050341
2004-11-05 08:36:34 51°14.842 2°53.601 12.059192 3.875547 33.585993 1.814375
2004-11-05 08:36:48 51°14.866 2°53.529 12.053001 3.896523 33.78443 2.016631
2004-11-05 08:36:52 51°14.873 2°53.508 12.058799 3.892623 33.743886 2.050341
2004-11-05 08:37:04 51°14.893 2°53.446 12.058258 3.860264 33.426427 2.016631
2004-11-05 08:37:08 51°14.899 2°53.426 12.064448 3.896101 33.7711 1.982922
2004-11-05 08:37:14 51°14.91 2°53.395 12.056244 3.889355 33.704494 2.08405
2004-11-05 08:37:18 51°14.916 2°53.375 12.060518 3.898947 33.79647 2.08405
2004-11-05 08:37:22 51°14.924 2°53.355 12.063417 3.897577 33.782514 2.050341
2004-11-05 08:37:36 51°14.949 2°53.281 12.043813 3.905587 33.859232 2.050341
2004-11-05 08:37:40 51°14.955 2°53.261 12.045975 3.903163 33.83651 1.881794
2004-11-05 08:37:46 51°14.965 2°53.231 12.045975 3.903163 33.83651 1.881794
2004-11-05 08:37:50 51°14.972 2°53.21 12.039587 3.897998 33.786589 2.016631
2004-11-05 08:37:56 51°14.983 2°53.179 12.041208 3.896312 33.775273 1.949212
2004-11-05 08:38:00 51°14.991 2°53.159 12.033984 3.899896 33.814189 1.848084
2004-11-05 08:38:06 51°15.001 2°53.128 12.03074 3.900844 33.827639 1.915503
2004-11-05 08:38:10 51°15.008 2°53.107 12.026808 3.897788 33.800221 1.949212
2004-11-05 08:38:16 51°15.019 2°53.077 12.026808 3.897788 33.800221 1.949212
2004-11-05 08:38:22 51°15.03 2°53.046 12.028823 3.892623 33.750289 1.949212
2004-11-05 08:38:24 51°15.033 2°53.036 12.02145 3.899474 33.81938 2.050341
2004-11-05 08:38:30 51°15.044 2°53.005 12.01329 3.88029 33.635361 2.08405
2004-11-05 08:38:34 51°15.05 2°52.984 12.000556 3.898209 33.811426 2.016631
2004-11-05 08:38:40 51°15.059 2°52.953 11.992639 3.884401 33.680057 2.08405
2004-11-05 08:38:46 51°15.069 2°52.922 11.992639 3.884401 33.680057 2.08405
2004-11-05 08:38:50 51°15.075 2°52.901 11.988754 3.877339 33.617477 2.050341
2004-11-05 08:38:56 51°15.084 2°52.87 11.978671 3.884085 33.687657 2.050341
2004-11-05 08:39:00 51°15.09 2°52.851 11.967505 3.886299 33.716173 2.08405
2004-11-05 08:39:06 51°15.099 2°52.82 11.965832 3.889777 33.756942 2.050341
2004-11-05 08:39:10 51°15.105 2°52.8 11.962389 3.889567 33.762028 1.982922
2004-11-05 08:39:14 51°15.111 2°52.779 11.962389 3.889567 33.762028 1.982922
2004-11-05 08:39:20 51°15.121 2°52.748 11.953631 3.88145 33.687054 1.814375
2004-11-05 08:39:26 51°15.131 2°52.716 11.948021 3.881134 33.693242 2.050341
2004-11-05 08:39:30 51°15.138 2°52.694 11.945216 3.882716 33.71709 2.050341
2004-11-05 08:39:34 51°15.145 2°52.673 11.940984 3.871437 33.612193 2.050341
2004-11-05 08:39:40 51°15.155 2°52.641 11.936604 3.872913 33.63358 1.949212
2004-11-05 08:39:44 51°15.162 2°52.62 11.936604 3.872913 33.63358 1.949212
2004-11-05 08:39:50 51°15.171 2°52.589 11.933355 3.879027 33.696328 2.08405
2004-11-05 08:39:54 51°15.178 2°52.569 11.934241 3.846247 33.385465 1.982922
2004-11-05 08:40:00 51°15.188 2°52.538 11.931682 3.868803 33.606575 1.949212
2004-11-05 08:40:06 51°15.198 2°52.505 11.929467 3.869857 33.621757 2.151469
2004-11-05 08:40:10 51°15.204 2°52.485 11.928679 3.878921 33.710983 2.117759
2004-11-05 08:40:14 51°15.209 2°52.464 11.928679 3.878921 33.710983 2.117759
2004-11-05 08:40:20 51°15.218 2°52.433 11.932518 3.873335 33.660426 1.982922
2004-11-05 08:40:26 51°15.226 2°52.4 11.933897 3.846669 33.402252 2.151469
2004-11-05 08:40:30 51°15.231 2°52.378 11.926218 3.863954 33.569572 2.050341
2004-11-05 08:40:36 51°15.24 2°52.345 11.937096 3.8746 33.676241 2.117759
2004-11-05 08:40:40 51°15.246 2°52.323 11.934832 3.8785 33.714029 2.151469
2004-11-05 08:40:46 51°15.253 2°52.29 11.934832 3.8785 33.714029 2.151469
2004-11-05 08:40:50 51°15.258 2°52.268 11.934044 3.857525 33.511574 2.016631
2004-11-05 08:40:56 51°15.267 2°52.234 11.947185 3.848566 33.424851 1.982922
2004-11-05 08:41:00 51°15.272 2°52.212 11.94433 3.846774 33.406097 1.982922
2004-11-05 08:41:06 51°15.28 2°52.178 11.944822 3.873651 33.66705 2.050341
2004-11-05 08:41:10 51°15.285 2°52.156 11.952253 3.872703 33.659283 2.151469
2004-11-05 08:41:14 51°15.289 2°52.134 11.952253 3.872703 33.659283 2.151469
2004-11-05 08:41:22 51°15.298 2°52.089 11.952204 3.86016 33.531414 2.08405
2004-11-05 08:41:28 51°15.304 2°52.055 11.953286 3.866484 33.587675 2.286306
2004-11-05 08:41:34 51°15.309 2°52.021 11.953286 3.866484 33.587675 2.286306
2004-11-05 08:41:38 51°15.313 2°51.998 11.956189 3.867327 33.595129 2.016631
2004-11-05 08:41:44 51°15.317 2°51.963 11.962438 3.871543 33.633111 2.050341
2004-11-05 08:41:46 51°15.319 2°51.951 11.960224 3.879237 33.704068 2.016631
2004-11-05 08:41:54 51°15.324 2°51.905 11.962536 3.867011 33.585677 1.982922
2004-11-05 08:41:58 51°15.327 2°51.882 11.97085 3.879132 33.70376 1.915503
2004-11-05 08:42:04 51°15.33 2°51.847 11.97085 3.879132 33.70376 1.915503
2004-11-05 08:42:08 51°15.333 2°51.823 11.970703 3.880819 33.717244 1.848084
2004-11-05 08:42:14 51°15.336 2°51.788 11.970309 3.878605 33.692957 1.848084
2004-11-05 08:42:18 51°15.338 2°51.765 11.977048 3.860687 33.518796 1.814375
2004-11-05 08:42:22 51°15.34 2°51.742 11.97454 3.878605 33.689397 1.949212
2004-11-05 08:42:28 51°15.343 2°51.706 11.980442 3.879554 33.69787 1.915503
2004-11-05 08:42:34 51°15.346 2°51.672 11.980442 3.879554 33.69787 1.915503
2004-11-05 08:42:38 51°15.349 2°51.648 11.990377 3.852781 33.435251 1.881794
2004-11-05 08:42:44 51°15.352 2°51.613 11.990721 3.873862 33.634945 1.814375
2004-11-05 08:42:48 51°15.354 2°51.59 11.996278 3.88124 33.707077 1.780665
2004-11-05 08:42:54 51°15.357 2°51.555 12.00208 3.8746 33.641375 1.814375
2004-11-05 08:42:58 51°15.359 2°51.531 12.008472 3.872281 33.614672 1.746956
2004-11-05 08:43:04 51°15.362 2°51.496 12.008472 3.872281 33.614672 1.746956
2004-11-05 08:43:08 51°15.364 2°51.473 12.016338 3.886405 33.747816 1.746956
2004-11-05 08:43:14 51°15.367 2°51.438 12.01796 3.871753 33.598926 1.780665
2004-11-05 08:43:18 51°15.369 2°51.416 12.019435 3.867221 33.552965 1.679537
2004-11-05 08:43:24 51°15.373 2°51.382 12.03015 3.887669 33.740819 1.713247
2004-11-05 08:43:26 51°15.374 2°51.37 12.023564 3.883769 33.701664 1.713247
2004-11-05 08:43:34 51°15.379 2°51.324 12.023564 3.883769 33.701664 1.713247
2004-11-05 08:43:38 51°15.381 2°51.301 12.021303 3.877867 33.642439 1.713247
2004-11-05 08:43:44 51°15.385 2°51.266 12.030888 3.873861 33.600871 1.679537
2004-11-05 08:43:48 51°15.387 2°51.243 12.027693 3.889988 33.75257 1.713247
2004-11-05 08:43:53 51°15.391 2°51.213 12.033787 3.883874 33.692727 1.645828
2004-11-05 08:43:58 51°15.394 2°51.185 12.033149 3.886931 33.721579 1.746956
2004-11-05 08:44:04 51°15.397 2°51.15 12.033149 3.886931 33.721579 1.746956
2004-11-05 08:44:08 51°15.4 2°51.126 12.037768 3.884612 33.695597 1.5447
2004-11-05 08:44:14 51°15.403 2°51.092 12.038948 3.88261 33.67481 1.679537
2004-11-05 08:44:20 51°15.406 2°51.057 12.03939 3.885245 33.696025 1.51099
2004-11-05 08:44:22 51°15.407 2°51.046 12.046073 3.890199 33.743217 1.5447
2004-11-05 08:44:28 51°15.41 2°51.012 12.048186 3.889461 33.732524 1.443571
2004-11-05 08:44:34 51°15.414 2°50.977 12.048186 3.889461 33.732524 1.443571
2004-11-05 08:44:38 51°15.417 2°50.953 12.057865 3.892728 33.761984 1.612118
2004-11-05 08:44:44 51°15.421 2°50.919 12.055065 3.891253 33.747004 1.51099
2004-11-05 08:44:48 51°15.423 2°50.896 12.06096 3.864585 33.487186 1.612118
2004-11-05 08:44:54 51°15.427 2°50.86 12.05929 3.888828 33.717876 1.477281
2004-11-05 08:44:58 51°15.43 2°50.837 12.058897 3.899263 33.813777 1.409862
2004-11-05 08:45:04 51°15.433 2°50.802 12.058897 3.899263 33.813777 1.409862
2004-11-05 08:45:08 51°15.436 2°50.778 12.057128 3.892517 33.745001 1.578409
2004-11-05 08:45:14 51°15.44 2°50.743 12.057128 3.889987 33.719841 1.645828
2004-11-05 08:45:18 51°15.442 2°50.719 12.05875 3.895679 33.774143 1.5447
2004-11-05 08:45:24 51°15.446 2°50.685 12.061697 3.900528 33.821016 1.376153
2004-11-05 08:45:28 51°15.448 2°50.662 12.072111 3.870699 33.532799 1.51099
2004-11-05 08:45:32 51°15.45 2°50.639 12.072111 3.870699 33.532799 1.51099
2004-11-05 08:45:38 51°15.455 2°50.604 12.067543 3.895679 33.775567 1.376153
2004-11-05 08:45:42 51°15.458 2°50.581 12.07216 3.903796 33.849756 1.443571
2004-11-05 08:45:48 51°15.462 2°50.546 12.069311 3.905904 33.869426 1.51099
2004-11-05 08:45:54 51°15.467 2°50.511 12.075402 3.905798 33.864125 1.409862
2004-11-05 08:45:58 51°15.469 2°50.488 12.07776 3.894625 33.756128 1.376153
2004-11-05 08:46:04 51°15.474 2°50.454 12.07776 3.894625 33.756128 1.376153
2004-11-05 08:46:06 51°15.475 2°50.443 12.081542 3.89842 33.791376 1.342443
2004-11-05 08:46:14 51°15.482 2°50.397 12.082917 3.899052 33.796064 1.275024
2004-11-05 08:46:18 51°15.484 2°50.374 12.077416 3.902636 33.829277 1.308734
2004-11-05 08:46:24 51°15.489 2°50.339 12.080952 3.893255 33.734356 1.308734
2004-11-05 08:46:27 51°15.491 2°50.321 12.080117 3.910014 33.894892 1.308734
2004-11-05 08:46:33 51°15.496 2°50.287 12.080117 3.910014 33.894892 1.308734
2004-11-05 08:46:38 51°15.5 2°50.258 12.081394 3.90759 33.869316 1.207606
2004-11-05 08:46:44 51°15.504 2°50.223 12.085962 3.898841 33.786907 1.376153
2004-11-05 08:46:48 51°15.507 2°50.2 12.090381 3.899579 33.792613 1.308734
2004-11-05 08:46:52 51°15.51 2°50.178 12.093033 3.902214 33.818076 1.376153
2004-11-05 08:46:58 51°15.513 2°50.144 12.097894 3.908222 33.874715 1.342443
2004-11-05 08:47:02 51°15.516 2°50.121 12.097894 3.908222 33.874715 1.342443
2004-11-05 08:47:06 51°15.519 2°50.098 12.09647 3.90643 33.854544 1.308734
2004-11-05 08:47:14 51°15.524 2°50.053 12.098631 3.903268 33.82185 1.51099
2004-11-05 08:47:18 51°15.527 2°50.03 12.104572 3.911385 33.897427 1.241315
2004-11-05 08:47:24 51°15.532 2°49.996 12.104375 3.905903 33.842323 1.241315
2004-11-05 08:47:27 51°15.534 2°49.979 12.104522 3.914336 33.92238 1.275024
2004-11-05 08:47:34 51°15.539 2°49.94 12.104522 3.914336 33.92238 1.275024
2004-11-05 08:47:40 51°15.543 2°49.905 12.110856 3.901371 33.794978 1.342443
2004-11-05 08:47:42 51°15.544 2°49.894 12.109137 3.903373 33.810051 1.376153
2004-11-05 08:47:50 51°15.55 2°49.848 12.118808 3.91539 33.927567 1.275024
2004-11-05 08:47:54 51°15.554 2°49.825 12.117728 3.912649 33.896802 1.308734
2004-11-05 08:47:58 51°15.557 2°49.802 12.121409 3.915706 33.925623 1.376153
2004-11-05 08:48:04 51°15.561 2°49.768 12.121409 3.915706 33.925623 1.376153
2004-11-05 08:48:08 51°15.564 2°49.744 12.127741 3.907273 33.840598 1.409862
2004-11-05 08:48:14 51°15.569 2°49.709 12.128526 3.897576 33.744121 1.443571
2004-11-05 08:48:18 51°15.572 2°49.686 12.132403 3.914125 33.901069 1.342443
2004-11-05 08:48:22 51°15.575 2°49.663 12.14104 3.92203 33.975296 1.409862
2004-11-05 08:48:28 51°15.579 2°49.629 12.150755 3.914652 33.902593 1.409862
2004-11-05 08:48:33 51°15.584 2°49.599 12.150755 3.914652 33.902593 1.409862
2004-11-05 08:48:38 51°15.588 2°49.57 12.149431 3.918552 33.934551 1.443571
2004-11-05 08:48:42 51°15.591 2°49.547 12.153993 3.921503 33.9602 1.443571
2004-11-05 08:48:48 51°15.595 2°49.512 12.159095 3.919395 33.938411 1.51099
2004-11-05 08:48:54 51°15.6 2°49.478 12.168563 3.921925 33.956415 1.443571
2004-11-05 08:48:57 51°15.602 2°49.46 12.173173 3.920027 33.933812 1.578409
2004-11-05 08:49:03 51°15.606 2°49.426 12.173173 3.920027 33.933812 1.578409
2004-11-05 08:49:09 51°15.61 2°49.391 12.17901 3.914335 33.874593 1.578409
2004-11-05 08:49:14 51°15.614 2°49.362 12.182541 3.924771 33.971753 1.578409
2004-11-05 08:49:18 51°15.617 2°49.339 12.188425 3.928249 33.998904 1.612118
2004-11-05 08:49:23 51°15.621 2°49.31 12.195584 3.928987 34.001025 1.645828
2004-11-05 08:49:26 51°15.623 2°49.293 12.203919 3.899051 33.706591 1.645828
2004-11-05 08:49:34 51°15.629 2°49.246 12.204507 3.926773 33.971807 1.780665
2004-11-05 08:49:42 51°15.635 2°49.2 12.219164 3.93489 34.042986 1.780665
2004-11-05 08:49:48 51°15.64 2°49.166 12.220487 3.929619 33.98856 1.814375
2004-11-05 08:49:50 51°15.642 2°49.155 12.220487 3.929619 33.98856 1.814375
2004-11-05 08:49:58 51°15.648 2°49.109 12.222104 3.934257 34.027592 1.949212
2004-11-05 08:50:02 51°15.651 2°49.086 12.225388 3.925297 33.936181 1.881794
2004-11-05 08:50:06 51°15.654 2°49.063 12.231416 3.928143 33.957209 1.915503
2004-11-05 08:50:11 51°15.658 2°49.035 12.237394 3.939422 34.058833 2.050341
2004-11-05 08:50:18 51°15.663 2°48.994 12.240138 3.940792 34.06919 2.151469
2004-11-05 08:50:22 51°15.666 2°48.971 12.240138 3.940792 34.06919 2.151469
2004-11-05 08:50:26 51°15.669 2°48.948 12.246459 3.938051 34.033477 2.320016
2004-11-05 08:50:31 51°15.673 2°48.919 12.249398 3.936259 34.019057 2.522272
2004-11-05 08:50:34 51°15.675 2°48.901 12.253122 3.936576 34.018537 2.286306
2004-11-05 08:50:41 51°15.68 2°48.862 12.257824 3.944903 34.092386 2.387435
2004-11-05 08:50:46 51°15.684 2°48.834 12.26478 3.944165 34.081699 2.488563
2004-11-05 08:50:49 51°15.686 2°48.816 12.26478 3.944165 34.081699 2.488563
2004-11-05 08:50:56 51°15.691 2°48.776 12.266739 3.944798 34.084222 2.6234
2004-11-05 08:51:02 51°15.695 2°48.744 12.272127 3.945957 34.091825 2.555982
2004-11-05 08:51:08 51°15.699 2°48.71 12.274722 3.942478 34.056158 2.724529
2004-11-05 08:51:10 51°15.7 2°48.699 12.279277 3.943743 34.062635 2.6234
2004-11-05 08:51:16 51°15.705 2°48.664 12.280452 3.948065 34.099992 2.758238
2004-11-05 08:51:22 51°15.709 2°48.63 12.280452 3.948065 34.099992 2.758238
2004-11-05 08:51:26 51°15.712 2°48.608 12.283978 3.945746 34.075506 2.690819
2004-11-05 08:51:32 51°15.717 2°48.574 12.289854 3.948065 34.092848 2.6234
2004-11-05 08:51:35 51°15.719 2°48.557 12.304443 3.953019 34.13772 2.758238
2004-11-05 08:51:41 51°15.723 2°48.523 12.303905 3.951438 34.118197 2.65711
2004-11-05 08:51:45 51°15.726 2°48.5 12.30317 3.953968 34.140423 2.825657
2004-11-05 08:51:51 51°15.731 2°48.466 12.30317 3.953968 34.140423 2.825657
2004-11-05 08:51:55 51°15.733 2°48.443 12.307038 3.941529 34.017781 2.926785
2004-11-05 08:52:02 51°15.739 2°48.403 12.313009 3.949119 34.085864 3.061623
2004-11-05 08:52:06 51°15.741 2°48.38 12.315212 3.951438 34.100341 3.129042
2004-11-05 08:52:11 51°15.745 2°48.352 12.320449 3.952914 34.112407 3.061623
2004-11-05 08:52:14 51°15.748 2°48.335 12.326272 3.951754 34.097675 3.162751
2004-11-05 08:52:27 51°15.757 2°48.26 12.32637 3.924558 33.833909 3.567264
2004-11-05 08:52:30 51°15.759 2°48.243 12.325196 3.959871 34.1701 3.398717
2004-11-05 08:52:38 51°15.765 2°48.197 12.326713 3.949013 34.059176 3.80323
2004-11-05 08:52:48 51°15.772 2°48.14 12.323189 3.951016 34.07417 3.76952
2004-11-05 08:52:51 51°15.774 2°48.123 12.332879 3.952492 34.086943 3.702101
2004-11-05 08:52:57 51°15.778 2°48.09 12.332879 3.952492 34.086943 3.702101
2004-11-05 08:53:02 51°15.781 2°48.062 12.330726 3.961136 34.168694 3.76952
2004-11-05 08:53:07 51°15.785 2°48.034 12.329404 3.953124 34.091602 3.938067
2004-11-05 08:53:19 51°15.794 2°47.965 12.312226 3.958606 34.142918 3.80323
2004-11-05 08:53:25 51°15.799 2°47.93 12.312177 3.957024 34.126989 3.971777
2004-11-05 08:53:31 51°15.803 2°47.896 12.30317 3.931198 33.877208 3.971777
2004-11-05 08:53:35 51°15.806 2°47.873 12.304492 3.960503 34.161178 3.870648
2004-11-05 08:53:40 51°15.81 2°47.844 12.302534 3.957657 34.139501 3.938067
2004-11-05 08:53:44 51°15.813 2°47.821 12.302534 3.957657 34.139501 3.938067
2004-11-05 08:53:49 51°15.818 2°47.792 12.297296 3.945218 34.025514 3.904358
2004-11-05 08:53:55 51°15.822 2°47.757 12.300233 3.952386 34.098054 3.735811
2004-11-05 08:54:02 51°15.827 2°47.716 12.307527 3.958606 34.160781 3.702101
2004-11-05 08:54:06 51°15.83 2°47.693 12.30459 3.951649 34.095947 3.432426
2004-11-05 08:54:10 51°15.834 2°47.67 12.311051 3.94058 33.993699 3.499845
2004-11-05 08:54:14 51°15.836 2°47.647 12.311051 3.94058 33.993699 3.499845
2004-11-05 08:54:20 51°15.841 2°47.613 12.314527 3.953652 34.120226 3.432426
2004-11-05 08:54:26 51°15.846 2°47.578 12.314527 3.947643 34.060956 3.297589
2004-11-05 08:54:30 51°15.849 2°47.555 12.323679 3.9546 34.125789 3.499845
2004-11-05 08:54:35 51°15.852 2°47.526 12.330579 3.947959 34.05901 3.162751
2004-11-05 08:54:39 51°15.856 2°47.502 12.34056 3.954073 34.117858 3.162751
2004-11-05 08:54:45 51°15.86 2°47.467 12.34056 3.954073 34.117858 3.162751
2004-11-05 08:54:49 51°15.863 2°47.444 12.34697 3.931515 33.895842 3.331298
2004-11-05 08:54:55 51°15.868 2°47.408 12.358759 3.954705 34.116806 3.297589
2004-11-05 08:54:58 51°15.87 2°47.391 12.362378 3.953862 34.100842 3.061623
2004-11-05 08:55:05 51°15.875 2°47.351 12.372649 3.930988 33.873765 3.129042
2004-11-05 08:55:10 51°15.879 2°47.322 12.379739 3.952386 34.07595 3.162751
2004-11-05 08:55:14 51°15.882 2°47.299 12.379739 3.952386 34.07595 3.162751
2004-11-05 08:55:17 51°15.884 2°47.281 12.386145 3.956075 34.101457 3.297589
2004-11-05 08:55:25 51°15.89 2°47.234 12.391816 3.955865 34.092303 3.466136
2004-11-05 08:55:29 51°15.893 2°47.211 12.396901 3.956075 34.087206 3.836939
2004-11-05 08:55:35 51°15.897 2°47.176 12.396314 3.942688 33.952876 3.567264
2004-11-05 08:55:39 51°15.9 2°47.152 12.401251 3.961029 34.121292 3.634683
2004-11-05 08:55:45 51°15.905 2°47.117 12.401251 3.961029 34.121292 3.634683
2004-11-05 08:55:50 51°15.909 2°47.088 12.394065 3.966827 34.174166 3.836939
2004-11-05 08:55:56 51°15.913 2°47.053 12.390203 3.958499 34.088435 3.533554
2004-11-05 08:55:59 51°15.916 2°47.035 12.38106 3.965667 34.15161 3.735811
2004-11-05 08:56:06 51°15.921 2°46.995 12.370937 3.963243 34.127602 3.836939
2004-11-05 08:56:10 51°15.924 2°46.971 12.36815 3.95481 34.047305 3.80323
2004-11-05 08:56:15 51°15.927 2°46.942 12.36815 3.95481 34.047305 3.80323
2004-11-05 08:56:20 51°15.931 2°46.913 12.361058 3.949961 34.000028 3.80323
2004-11-05 08:56:25 51°15.934 2°46.884 12.358172 3.955759 34.063528 3.76952
2004-11-05 08:56:30 51°15.938 2°46.855 12.351079 3.95597 34.071244 3.870648
2004-11-05 08:56:33 51°15.94 2°46.838 12.351959 3.934149 33.868751 3.76952
2004-11-05 08:56:39 51°15.945 2°46.803 12.344621 3.953545 34.05933 3.634683
2004-11-05 08:56:45 51°15.949 2°46.769 12.344621 3.953545 34.05933 3.634683
2004-11-05 08:56:50 51°15.953 2°46.74 12.343056 3.949013 34.022878 3.533554
2004-11-05 08:56:55 51°15.956 2°46.711 12.340316 3.940053 33.938906 3.466136
2004-11-05 08:56:59 51°15.959 2°46.688 12.339337 3.948802 34.024406 3.567264
2004-11-05 08:57:05 51°15.963 2°46.653 12.344964 3.948169 34.022593 3.365007
2004-11-05 08:57:10 51°15.967 2°46.624 12.339435 3.946061 34.003038 3.836939
2004-11-05 08:57:14 51°15.969 2°46.6 12.339435 3.946061 34.003038 3.836939
2004-11-05 08:57:19 51°15.973 2°46.572 12.341294 3.939526 33.945901 3.432426
2004-11-05 08:57:25 51°15.978 2°46.536 12.341148 3.948591 34.033048 3.331298
2004-11-05 08:57:29 51°15.981 2°46.513 12.34423 3.934044 33.894641 3.567264
2004-11-05 08:57:35 51°15.985 2°46.479 12.34697 3.947432 34.021188 3.432426
2004-11-05 08:57:40 51°15.989 2°46.451 12.344915 3.945956 34.009133 3.466136
2004-11-05 08:57:46 51°15.993 2°46.416 12.344915 3.945956 34.009133 3.466136
2004-11-05 08:57:50 51°15.996 2°46.393 12.347459 3.934466 33.898693 3.668392
2004-11-05 08:57:54 51°15.999 2°46.371 12.353378 3.927825 33.833471 3.398717
2004-11-05 08:58:00 51°16.004 2°46.335 12.354797 3.943426 33.983391 3.533554
2004-11-05 08:58:06 51°16.009 2°46.301 12.362036 3.945429 34.002644 3.19646
2004-11-05 08:58:10 51°16.012 2°46.278 12.357438 3.936469 33.912269 3.432426
2004-11-05 08:58:14 51°16.015 2°46.255 12.357438 3.936469 33.912269 3.432426
2004-11-05 08:58:20 51°16.019 2°46.221 12.367709 3.948064 34.024424 3.499845
2004-11-05 08:58:26 51°16.024 2°46.186 12.355433 3.946272 34.005775 3.398717
2004-11-05 08:58:29 51°16.026 2°46.168 12.366976 3.946377 34.003235 3.398717
2004-11-05 08:58:35 51°16.031 2°46.134 12.363356 3.94701 34.009314 3.365007
2004-11-05 08:58:38 51°16.033 2°46.116 12.362036 3.94332 33.974565 3.499845
2004-11-05 08:58:45 51°16.038 2°46.077 12.362036 3.94332 33.974565 3.499845
2004-11-05 08:58:50 51°16.041 2°46.049 12.366242 3.95091 34.04396 3.297589
2004-11-05 08:58:55 51°16.044 2°46.02 12.371426 3.949434 34.025508 3.19646
2004-11-05 08:58:59 51°16.047 2°45.998 12.3859 3.94332 33.969595 3.263879
2004-11-05 08:59:04 51°16.05 2°45.971 12.378321 3.923082 33.773788 3.263879
2004-11-05 08:59:10 51°16.055 2°45.938 12.369763 3.947642 34.006155 3.365007
2004-11-05 08:59:15 51°16.058 2°45.911 12.369763 3.947642 34.006155 3.365007
2004-11-05 08:59:20 51°16.062 2°45.882 12.375583 3.95228 34.047884 3.398717
2004-11-05 08:59:25 51°16.066 2°45.854 12.381695 3.951648 34.034695 3.499845
2004-11-05 08:59:29 51°16.069 2°45.831 12.37661 3.945639 33.976972 3.23017
2004-11-05 08:59:35 51°16.073 2°45.797 12.377001 3.95091 34.028316 3.297589
2004-11-05 08:59:39 51°16.076 2°45.774 12.37793 3.931936 33.848911 3.634683
2004-11-05 08:59:45 51°16.081 2°45.741 12.37793 3.931936 33.848911 3.634683
2004-11-05 08:59:49 51°16.085 2°45.718 12.38326 3.948696 34.006338 3.365007
2004-11-05 08:59:54 51°16.091 2°45.692 12.398514 3.934782 33.870579 3.499845
2004-11-05 09:00:00 51°16.101 2°45.661 12.410001 3.943636 33.957734 3.297589
2004-11-05 09:00:05 51°16.11 2°45.636 12.406091 3.93436 33.865824 3.432426
2004-11-05 09:00:07 51°16.113 2°45.626 12.400225 3.954283 34.054328 3.466136
2004-11-05 09:00:14 51°16.128 2°45.591 12.400225 3.954283 34.054328 3.466136
2004-11-05 09:00:20 51°16.14 2°45.562 12.404087 3.95618 34.065445 3.567264
2004-11-05 09:00:25 51°16.151 2°45.539 12.410734 3.953756 34.031498 3.466136
2004-11-05 09:00:30 51°16.162 2°45.516 12.409708 3.95365 34.028355 3.567264
2004-11-05 09:00:35 51°16.173 2°45.493 12.412103 3.953229 34.023597 3.567264
2004-11-05 09:00:40 51°16.183 2°45.47 12.415915 3.959343 34.083018 3.466136
2004-11-05 09:00:45 51°16.194 2°45.446 12.415915 3.959343 34.083018 3.466136
2004-11-05 09:00:47 51°16.199 2°45.437 12.420118 3.959026 34.077847 3.567264
2004-11-05 09:00:54 51°16.214 2°45.404 12.422073 3.948696 33.979372 3.499845
2004-11-05 09:00:59 51°16.224 2°45.381 12.423001 3.940474 33.896215 3.634683
2004-11-05 09:01:05 51°16.238 2°45.352 12.427204 3.93436 33.836856 3.567264
2004-11-05 09:01:10 51°16.248 2°45.329 12.427057 3.962399 34.102416 3.870648
2004-11-05 09:01:14 51°16.257 2°45.31 12.427057 3.962399 34.102416 3.870648
2004-11-05 09:01:18 51°16.265 2°45.291 12.43038 3.951963 34.0001 3.836939
2004-11-05 09:01:24 51°16.278 2°45.262 12.433067 3.959342 34.069509 3.938067
2004-11-05 09:01:29 51°16.29 2°45.239 12.437464 3.949223 33.969546 3.904358
2004-11-05 09:01:35 51°16.303 2°45.211 12.434093 3.95871 34.059175 3.904358
2004-11-05 09:01:38 51°16.309 2°45.196 12.438735 3.96398 34.109061 3.904358
2004-11-05 09:01:46 51°16.327 2°45.159 12.438735 3.96398 34.109061 3.904358
2004-11-05 09:01:50 51°16.335 2°45.14 12.437171 3.962505 34.090627 3.567264
2004-11-05 09:01:54 51°16.344 2°45.12 12.434582 3.954072 34.008985 3.904358
2004-11-05 09:02:00 51°16.358 2°45.092 12.435657 3.961556 34.080099 3.634683
2004-11-05 09:02:06 51°16.37 2°45.065 12.43209 3.94469 33.915448 3.938067
2004-11-05 09:02:10 51°16.379 2°45.046 12.439419 3.967037 34.129158 3.735811
2004-11-05 09:02:16 51°16.392 2°45.018 12.439419 3.967037 34.129158 3.735811
2004-11-05 09:02:20 51°16.401 2°45 12.432041 3.959237 34.057131 3.836939
2004-11-05 09:02:26 51°16.414 2°44.972 12.437318 3.960396 34.066839 3.836939
2004-11-05 09:02:30 51°16.423 2°44.954 12.439467 3.963032 34.092842 3.76952
2004-11-05 09:02:36 51°16.437 2°44.925 12.431797 3.967459 34.134629 3.836939
2004-11-05 09:02:40 51°16.446 2°44.907 12.427204 3.937838 33.849747 3.668392
2004-11-05 09:02:46 51°16.459 2°44.879 12.427204 3.937838 33.849747 3.668392
2004-11-05 09:02:50 51°16.468 2°44.861 12.433409 3.959869 34.06107 3.80323
2004-11-05 09:02:56 51°16.481 2°44.833 12.431797 3.96398 34.099104 3.870648
2004-11-05 09:03:00 51°16.49 2°44.815 12.4295 3.966299 34.122786 3.870648
2004-11-05 09:03:06 51°16.503 2°44.787 12.430038 3.961029 34.075751 3.668392
2004-11-05 09:03:10 51°16.512 2°44.769 12.425591 3.967565 34.138488 3.735811
2004-11-05 09:03:16 51°16.525 2°44.741 12.425591 3.967565 34.138488 3.735811
2004-11-05 09:03:18 51°16.529 2°44.732 12.429598 3.943741 33.909177 3.499845
2004-11-05 09:03:26 51°16.547 2°44.694 12.421828 3.960923 34.075449 4.039195
2004-11-05 09:03:29 51°16.553 2°44.68 12.418749 3.964824 34.114311 3.870648
2004-11-05 09:03:35 51°16.566 2°44.653 12.419482 3.95871 34.057754 3.499845
2004-11-05 09:03:40 51°16.577 2°44.63 12.414302 3.960607 34.075256 3.567264
2004-11-05 09:03:46 51°16.59 2°44.603 12.414302 3.960607 34.075256 3.567264
2004-11-05 09:03:50 51°16.6 2°44.585 12.412396 3.960291 34.073642 3.533554
2004-11-05 09:03:54 51°16.608 2°44.567 12.415035 3.958604 34.061005 3.466136
2004-11-05 09:04:00 51°16.621 2°44.54 12.412738 3.959237 34.067787 3.533554
2004-11-05 09:04:05 51°16.632 2°44.517 12.418505 3.964402 34.120225 3.365007
2004-11-05 09:04:08 51°16.638 2°44.503 12.417967 3.952491 34.007996 3.365007
2004-11-05 09:04:16 51°16.656 2°44.467 12.417967 3.952491 34.007996 3.365007
2004-11-05 09:04:18 51°16.661 2°44.459 12.407655 3.960607 34.087342 3.466136
2004-11-05 09:04:26 51°16.68 2°44.424 12.407068 3.962294 34.104961 3.499845
2004-11-05 09:04:30 51°16.69 2°44.407 12.408681 3.960291 34.085016 3.466136
2004-11-05 09:04:36 51°16.704 2°44.382 12.410588 3.954704 34.029955 3.365007
2004-11-05 09:04:40 51°16.714 2°44.364 12.402474 3.950593 33.990494 3.331298
2004-11-05 09:04:46 51°16.73 2°44.339 12.402474 3.950593 33.990494 3.331298
2004-11-05 09:04:50 51°16.74 2°44.322 12.399052 3.95365 34.022675 3.466136
2004-11-05 09:04:54 51°16.749 2°44.304 12.400372 3.961345 34.098696 3.533554
2004-11-05 09:04:58 51°16.759 2°44.287 12.38947 3.952174 34.011347 3.466136
2004-11-05 09:05:06 51°16.778 2°44.251 12.389323 3.933411 33.832697 3.533554
2004-11-05 09:05:10 51°16.788 2°44.233 12.382967 3.94838 33.98059 3.365007
2004-11-05 09:05:16 51°16.802 2°44.205 12.382967 3.94838 33.98059 3.365007
2004-11-05 09:05:20 51°16.811 2°44.187 12.38194 3.952175 34.019865 3.263879
2004-11-05 09:05:26 51°16.824 2°44.159 12.386585 3.94469 33.95155 3.23017
2004-11-05 09:05:32 51°16.838 2°44.131 12.379202 3.951753 34.021497 3.129042
2004-11-05 09:05:36 51°16.847 2°44.112 12.376316 3.950488 34.013609 3.466136
2004-11-05 09:05:38 51°16.851 2°44.104 12.37172 3.956075 34.070122 3.432426
2004-11-05 09:05:48 51°16.873 2°44.059 12.375045 3.952491 34.034268 3.331298
2004-11-05 09:05:54 51°16.887 2°44.031 12.375192 3.951858 34.031035 3.398717
2004-11-05 09:05:58 51°16.896 2°44.013 12.373089 3.949329 34.008153 3.398717
2004-11-05 09:06:04 51°16.909 2°43.987 12.373089 3.949329 34.008153 3.398717
2004-11-05 09:06:08 51°16.918 2°43.969 12.380228 3.950488 34.021423 3.499845
2004-11-05 09:06:14 51°16.931 2°43.941 12.385411 3.94975 34.015755 3.499845
2004-11-05 09:06:18 51°16.94 2°43.923 12.389176 3.949856 34.017478 3.365007
2004-11-05 09:06:24 51°16.953 2°43.897 12.373236 3.951648 34.031852 3.398717
2004-11-05 09:06:26 51°16.957 2°43.888 12.378175 3.94585 33.976158 3.365007
2004-11-05 09:06:46 51°17 2°43.8 12.379739 3.946166 33.978486 3.19646
2004-11-05 09:06:52 51°17.013 2°43.774 12.379299 3.951437 34.031248 3.499845
2004-11-05 09:06:58 51°17.026 2°43.747 12.379299 3.951437 34.031248 3.499845
2004-11-05 09:07:02 51°17.033 2°43.728 12.370497 3.947431 33.992056 3.297589
2004-11-05 09:07:08 51°17.041 2°43.698 12.369323 3.948064 33.996002 3.23017
2004-11-05 09:07:12 51°17.046 2°43.677 12.37035 3.951437 34.028405 3.263879
2004-11-05 09:07:16 51°17.051 2°43.656 12.3659 3.941739 33.935966 3.23017
2004-11-05 09:07:22 51°17.057 2°43.624 12.367856 3.952175 34.041893 3.466136
2004-11-05 09:07:32 51°17.063 2°43.567 12.363259 3.950277 34.025082 3.162751
2004-11-05 09:07:36 51°17.065 2°43.544 12.353769 3.950594 34.028832 3.095332
2004-11-05 09:07:42 51°17.068 2°43.51 12.356117 3.92793 33.814693 3.365007
2004-11-05 09:07:46 51°17.07 2°43.487 12.363405 3.946377 33.993289 2.994204
2004-11-05 09:07:52 51°17.072 2°43.451 12.363405 3.946377 33.993289 2.994204
2004-11-05 09:07:58 51°17.073 2°43.417 12.35915 3.947748 34.007878 2.994204
2004-11-05 09:08:02 51°17.074 2°43.394 12.361938 3.940263 33.940223 2.994204
2004-11-05 09:08:06 51°17.076 2°43.371 12.365264 3.944164 33.977699 3.129042
2004-11-05 09:08:12 51°17.078 2°43.336 12.354112 3.937207 33.908728 3.027913
2004-11-05 09:08:14 51°17.078 2°43.324 12.377784 3.94195 33.95288 2.825657
2004-11-05 09:08:22 51°17.081 2°43.278 12.362867 3.942266 33.9545 2.893076
2004-11-05 09:08:28 51°17.083 2°43.243 12.384091 3.933939 33.874509 2.522272
2004-11-05 09:08:34 51°17.085 2°43.208 12.384091 3.933939 33.874509 2.522272
2004-11-05 09:08:38 51°17.086 2°43.185 12.383945 3.942477 33.960073 2.825657
2004-11-05 09:08:44 51°17.088 2°43.15 12.372796 3.944164 33.9706 2.791947
2004-11-05 09:08:48 51°17.089 2°43.127 12.357683 3.935203 33.875335 2.65711
2004-11-05 09:08:52 51°17.091 2°43.103 12.356558 3.928773 33.815019 2.589691
2004-11-05 09:08:58 51°17.093 2°43.068 12.365851 3.944691 33.968568 2.825657
2004-11-05 09:09:02 51°17.094 2°43.044 12.365851 3.944691 33.968568 2.825657
2004-11-05 09:09:08 51°17.097 2°43.01 12.383358 3.938893 33.912885 2.791947
2004-11-05 09:09:14 51°17.099 2°42.974 12.37392 3.92793 33.811868 2.893076
2004-11-05 09:09:18 51°17.101 2°42.951 12.386194 3.941212 33.945082 3.061623
2004-11-05 09:09:28 51°17.104 2°42.894 12.381353 3.936152 33.894353 2.758238
2004-11-05 09:09:30 51°17.105 2°42.883 12.388198 3.94701 33.992975 2.926785
2004-11-05 09:09:44 51°17.109 2°42.804 12.38062 3.928246 33.804313 3.027913
2004-11-05 09:09:48 51°17.111 2°42.781 12.369763 3.940369 33.919265 2.825657
2004-11-05 09:10:08 51°17.12 2°42.666 12.378615 3.941634 33.934245 2.791947
2004-11-05 09:10:12 51°17.122 2°42.643 12.385265 3.939842 33.917745 2.859366
2004-11-05 09:10:16 51°17.124 2°42.62 12.381255 3.942161 33.946395 3.027913
2004-11-05 09:10:28 51°17.131 2°42.549 12.387563 3.947115 33.994698 2.724529
2004-11-05 09:10:32 51°17.133 2°42.525 12.384531 3.942793 33.949634 2.859366
2004-11-05 09:10:38 51°17.135 2°42.491 12.385754 3.939736 33.914609 3.095332
2004-11-05 09:10:42 51°17.136 2°42.467 12.389323 3.936995 33.887587 2.758238
2004-11-05 09:10:48 51°17.138 2°42.43 12.394554 3.946904 33.979897 2.859366
2004-11-05 09:10:54 51°17.14 2°42.394 12.395581 3.940896 33.921493 2.859366
2004-11-05 09:10:56 51°17.14 2°42.382 12.395581 3.940896 33.921493 2.859366
2004-11-05 09:11:02 51°17.141 2°42.345 12.393283 3.947115 33.98405 2.994204
2004-11-05 09:11:08 51°17.143 2°42.309 12.403011 3.927508 33.792998 2.926785
2004-11-05 09:11:12 51°17.143 2°42.285 12.399052 3.941528 33.92544 2.791947
2004-11-05 09:11:16 51°17.144 2°42.261 12.408339 3.948485 33.989405 2.960494
2004-11-05 09:11:20 51°17.145 2°42.237 12.401447 3.940263 33.909757 3.027913
2004-11-05 09:11:28 51°17.146 2°42.189 12.401447 3.940263 33.909757 3.027913
2004-11-05 09:11:32 51°17.147 2°42.165 12.401985 3.950593 34.006811 2.926785
2004-11-05 09:11:38 51°17.147 2°42.13 12.40482 3.944163 33.942947 2.960494
2004-11-05 09:11:44 51°17.148 2°42.095 12.414644 3.947326 33.970471 3.061623
2004-11-05 09:11:48 51°17.147 2°42.073 12.40614 3.949645 33.992025 3.162751
2004-11-05 09:11:52 51°17.148 2°42.051 12.411809 3.948485 33.980893 3.061623
2004-11-05 09:11:58 51°17.149 2°42.016 12.411809 3.948485 33.980893 3.061623
2004-11-05 09:12:03 51°17.15 2°41.988 12.408193 3.945955 33.953773 2.994204
2004-11-05 09:12:06 51°17.151 2°41.971 12.415475 3.943004 33.924029 3.095332
2004-11-05 09:12:12 51°17.152 2°41.936 12.415768 3.945112 33.942845 2.960494
2004-11-05 09:12:16 51°17.153 2°41.913 12.414595 3.937944 33.872649 3.061623
2004-11-05 09:12:28 51°17.155 2°41.844 12.426422 3.943847 33.927874 2.960494
2004-11-05 09:12:32 51°17.156 2°41.82 12.426422 3.943847 33.927874 2.960494
2004-11-05 09:12:38 51°17.158 2°41.785 12.427155 3.939736 33.886307 2.758238
2004-11-05 09:12:48 51°17.16 2°41.727 12.437709 3.951226 33.990891 2.926785
2004-11-05 09:12:52 51°17.16 2°41.703 12.442936 3.936362 33.845477 3.027913
2004-11-05 09:12:58 51°17.162 2°41.669 12.442936 3.936362 33.845477 3.027913
2004-11-05 09:13:02 51°17.162 2°41.646 12.450361 3.953439 34.007171 2.994204
2004-11-05 09:13:08 51°17.163 2°41.612 12.455734 3.951647 33.987849 2.825657
2004-11-05 09:13:12 51°17.164 2°41.588 12.463696 3.950171 33.969439 2.960494
2004-11-05 09:13:16 51°17.166 2°41.565 12.479371 3.951647 33.979346 3.061623
2004-11-05 09:13:22 51°17.168 2°41.53 12.481324 3.948063 33.940017 2.926785
2004-11-05 09:13:28 51°17.171 2°41.495 12.481324 3.948063 33.940017 2.926785
2004-11-05 09:13:32 51°17.172 2°41.472 12.486499 3.95112 33.964378 2.893076
2004-11-05 09:13:38 51°17.175 2°41.437 12.496751 3.954915 33.994395 3.027913
2004-11-05 09:13:40 51°17.176 2°41.425 12.50256 3.950065 33.938003 2.926785
2004-11-05 09:13:46 51°17.179 2°41.391 12.510174 3.9488 33.916697 2.994204
2004-11-05 09:13:50 51°17.181 2°41.367 12.515152 3.954282 33.96427 3.19646
2004-11-05 09:13:58 51°17.185 2°41.32 12.515152 3.954282 33.96427 3.19646
2004-11-05 09:14:02 51°17.186 2°41.297 12.52579 3.956179 33.978915 3.129042
2004-11-05 09:14:08 51°17.19 2°41.262 12.533499 3.959447 34.004565 2.994204
2004-11-05 09:14:11 51°17.191 2°41.244 12.537402 3.958182 33.98608 3.162751
2004-11-05 09:14:17 51°17.194 2°41.209 12.546086 3.958603 33.985168 3.19646
2004-11-05 09:14:22 51°17.195 2°41.18 12.550232 3.961133 34.000205 3.23017
2004-11-05 09:14:28 51°17.198 2°41.144 12.550232 3.961133 34.000205 3.23017
2004-11-05 09:14:32 51°17.199 2°41.121 12.556085 3.959868 33.981024 3.365007
2004-11-05 09:14:38 51°17.202 2°41.085 12.561547 3.961871 33.996665 3.466136
2004-11-05 09:14:42 51°17.203 2°41.062 12.565302 3.959025 33.962359 3.567264
2004-11-05 09:14:48 51°17.206 2°41.028 12.578224 3.958919 33.956409 3.567264
2004-11-05 09:14:52 51°17.207 2°41.005 12.577151 3.962081 33.981021 3.668392
2004-11-05 09:14:58 51°17.209 2°40.97 12.577151 3.962081 33.981021 3.668392
2004-11-05 09:15:02 51°17.211 2°40.947 12.582124 3.962398 33.978399 3.600973
2004-11-05 09:15:06 51°17.211 2°40.924 12.584952 3.965138 33.998971 3.702101
2004-11-05 09:15:12 51°17.214 2°40.889 12.594848 3.960922 33.952291 3.80323
2004-11-05 09:15:18 51°17.215 2°40.853 12.592362 3.968406 34.019635 3.567264
2004-11-05 09:15:20 51°17.216 2°40.842 12.601526 3.963873 33.972757 3.836939
2004-11-05 09:15:28 51°17.218 2°40.795 12.601526 3.963873 33.972757 3.836939
2004-11-05 09:15:32 51°17.219 2°40.771 12.600648 3.967984 34.00854 3.668392
2004-11-05 09:15:48 51°17.223 2°40.678 12.613466 3.972517 34.03917 4.039195
2004-11-05 09:15:58 51°17.226 2°40.619 12.618242 3.969987 34.010044 4.207742
2004-11-05 09:16:04 51°17.228 2°40.585 12.621604 3.97336 34.038051 4.140324
2004-11-05 09:16:10 51°17.229 2°40.55 12.621604 3.97336 34.038051 4.140324
2004-11-05 09:16:14 51°17.229 2°40.527 12.624966 3.976839 34.067064 4.34258
2004-11-05 09:16:17 51°17.23 2°40.51 12.623894 3.97473 34.0455 4.308871
2004-11-05 09:16:23 51°17.232 2°40.474 12.628425 3.973149 34.027566 4.34258
2004-11-05 09:16:36 51°17.235 2°40.399 12.630179 3.975257 34.043477 4.544836
2004-11-05 09:16:42 51°17.237 2°40.364 12.625843 3.978104 34.067143 4.443708
2004-11-05 09:16:46 51°17.238 2°40.34 12.627012 3.975995 34.044881 4.612255
2004-11-05 09:16:52 51°17.24 2°40.305 12.627012 3.975995 34.044881 4.612255
2004-11-05 09:16:56 51°17.24 2°40.282 12.624284 3.97589 34.043873 4.443708
2004-11-05 09:17:02 51°17.242 2°40.247 12.622383 3.961026 33.902615 4.645965
2004-11-05 09:17:06 51°17.243 2°40.223 12.623748 3.961237 33.903222 4.578546
2004-11-05 09:17:10 51°17.245 2°40.2 12.61985 3.97979 34.080434 4.443708
2004-11-05 09:17:24 51°17.248 2°40.117 12.623017 3.977366 34.057268 4.443708
2004-11-05 09:17:26 51°17.25 2°40.105 12.623017 3.981055 34.094642 4.409999
2004-11-05 09:17:34 51°17.252 2°40.058 12.623017 3.981055 34.094642 4.409999
2004-11-05 09:17:38 51°17.253 2°40.035 12.623845 3.976206 34.049718 4.713383
2004-11-05 09:17:42 51°17.254 2°40.012 12.6313 3.980212 34.087997 4.578546
2004-11-05 09:17:58 51°17.259 2°39.918 12.623407 3.974203 34.029876 4.409999
2004-11-05 09:18:02 51°17.26 2°39.894 12.621555 3.974309 34.030178 4.88193
2004-11-05 09:18:06 51°17.261 2°39.871 12.620678 3.977787 34.062003 4.645965
2004-11-05 09:18:10 51°17.262 2°39.847 12.620288 3.984639 34.126774 4.679674
2004-11-05 09:18:16 51°17.264 2°39.811 12.626038 3.977682 34.063114 4.88193
2004-11-05 09:18:22 51°17.266 2°39.776 12.626038 3.977682 34.063114 4.88193
2004-11-05 09:18:24 51°17.267 2°39.764 12.625014 3.978736 34.073893 4.713383
2004-11-05 09:18:31 51°17.27 2°39.723 12.627304 3.978736 34.075307 4.983059
2004-11-05 09:18:36 51°17.271 2°39.693 12.631446 3.979052 34.078329 4.645965
2004-11-05 09:18:42 51°17.273 2°39.658 12.634856 3.966719 33.960494 5.117896
2004-11-05 09:18:46 51°17.274 2°39.635 12.645427 3.982953 34.115606 4.949349
2004-11-05 09:19:04 51°17.278 2°39.531 12.65619 3.982742 34.107933 4.814512
2004-11-05 09:19:08 51°17.279 2°39.508 12.666174 3.984323 34.120215 4.88193
2004-11-05 09:19:14 51°17.28 2°39.477 12.670458 3.977998 34.053428 5.185315
2004-11-05 09:19:20 51°17.282 2°39.446 12.67523 3.973992 34.011644 5.219024
2004-11-05 09:19:24 51°17.283 2°39.426 12.675814 3.980317 34.064991 5.320153
2004-11-05 09:19:28 51°17.284 2°39.408 12.679709 3.983585 34.089845 5.320153
2004-11-05 09:19:34 51°17.285 2°39.38 12.679709 3.983585 34.089845 5.320153
2004-11-05 09:19:50 51°17.289 2°39.312 12.686963 3.990858 34.146583 5.421281
2004-11-05 09:19:54 51°17.291 2°39.296 12.691198 3.994126 34.173544 5.623537
2004-11-05 09:20:08 51°17.294 2°39.242 12.693291 3.986009 34.088288 5.589828
2004-11-05 09:20:12 51°17.295 2°39.227 12.695335 3.982109 34.049659 5.4887
2004-11-05 09:20:18 51°17.297 2°39.206 12.69772 3.994442 34.168075 5.353862
2004-11-05 09:20:24 51°17.299 2°39.185 12.700884 3.995707 34.178737 5.825794
2004-11-05 09:20:28 51°17.3 2°39.171 12.697136 3.992439 34.144716 5.758375
2004-11-05 09:20:33 51°17.301 2°39.156 12.697136 3.992439 34.144716 5.758375
2004-11-05 09:20:39 51°17.303 2°39.138 12.699326 3.991596 34.136667 5.724665
2004-11-05 09:20:44 51°17.305 2°39.125 12.7076 3.994548 34.161305 5.724665
2004-11-05 09:20:48 51°17.306 2°39.114 12.704826 3.983584 34.055284 5.657247
2004-11-05 09:21:03 51°17.312 2°39.08 12.709011 3.977997 33.999883 5.792084
2004-11-05 09:21:06 51°17.313 2°39.074 12.713537 3.986852 34.080819 5.825794
2004-11-05 09:21:16 51°17.318 2°39.056 12.7167 3.991807 34.12738 5.893212
2004-11-05 09:21:20 51°17.321 2°39.05 12.717089 3.989804 34.105449 5.690956
2004-11-05 09:21:26 51°17.325 2°39.042 12.727404 3.992123 34.126162 5.589828
2004-11-05 09:21:30 51°17.328 2°39.037 12.728474 3.977786 33.988029 5.893212
2004-11-05 09:21:36 51°17.333 2°39.031 12.723122 3.995602 34.157232 5.859503
2004-11-05 09:21:40 51°17.335 2°39.029 12.723365 3.976205 33.968038 6.129178
2004-11-05 09:21:46 51°17.339 2°39.025 12.723365 3.976205 33.968038 6.129178
2004-11-05 09:21:50 51°17.341 2°39.024 12.724193 3.996867 34.161529 5.556118
2004-11-05 09:21:56 51°17.345 2°39.024 12.725458 3.991701 34.110852 6.061759
2004-11-05 09:22:00 51°17.347 2°39.023 12.729593 3.99402 34.130853 5.623537
2004-11-05 09:22:06 51°17.35 2°39.023 12.729885 3.998132 34.170064 5.623537
2004-11-05 09:22:10 51°17.351 2°39.024 12.731344 3.992755 34.118789 5.556118
2004-11-05 09:22:14 51°17.352 2°39.025 12.731344 3.992755 34.118789 5.556118
2004-11-05 09:22:20 51°17.354 2°39.026 12.733436 3.997077 34.161422 5.825794
2004-11-05 09:22:26 51°17.355 2°39.026 12.738009 4.00161 34.201127 5.758375
2004-11-05 09:22:32 51°17.355 2°39.027 12.735917 3.99149 34.103906 5.657247
2004-11-05 09:22:34 51°17.355 2°39.027 12.736257 3.995285 34.137271 6.398853
2004-11-05 09:22:39 51°17.355 2°39.028 12.735625 3.993915 34.123498 5.758375
2004-11-05 09:22:46 51°17.355 2°39.029 12.735625 3.993915 34.123498 5.758375
2004-11-05 09:22:50 51°17.355 2°39.03 12.738057 3.998659 34.168734 6.129178
2004-11-05 09:22:56 51°17.355 2°39.031 12.739322 3.996129 34.143196 5.994341
2004-11-05 09:23:00 51°17.355 2°39.032 12.737863 4.001083 34.189032 6.162888
2004-11-05 09:23:06 51°17.355 2°39.033 12.73976 3.998342 34.161482 6.061759
2004-11-05 09:23:10 51°17.355 2°39.034 12.740733 3.999924 34.177973 6.264016
2004-11-05 09:23:15 51°17.354 2°39.034 12.740733 3.999924 34.177973 6.264016
2004-11-05 09:23:22 51°17.354 2°39.036 12.742581 3.999291 34.169823 6.095469
2004-11-05 09:23:26 51°17.354 2°39.037 12.740684 4.001083 34.186205 6.061759
2004-11-05 09:23:30 51°17.353 2°39.038 12.743408 3.999291 34.171941 5.792084
2004-11-05 09:23:35 51°17.352 2°39.039 12.743262 3.997921 34.157461 6.129178
2004-11-05 09:23:40 51°17.352 2°39.04 12.742289 3.994125 34.117752 5.960631
2004-11-05 09:23:46 51°17.351 2°39.041 12.742289 3.994125 34.117752 5.960631
2004-11-05 09:23:50 51°17.351 2°39.042 12.743116 3.980948 33.993578 6.095469
2004-11-05 09:23:55 51°17.35 2°39.044 12.744429 3.995601 34.131116 6.095469
2004-11-05 09:24:00 51°17.349 2°39.045 12.743992 3.997921 34.153226 5.994341
2004-11-05 09:24:10 51°17.349 2°39.046 12.743311 3.993282 34.109008 5.859503
2004-11-05 09:24:14 51°17.348 2°39.047 12.747202 3.995391 34.129106 6.331435
2004-11-05 09:24:28 51°17.347 2°39.05 12.751627 4.002981 34.200767 5.994341
2004-11-05 09:24:32 51°17.346 2°39.05 12.750801 3.996655 34.139049 6.02805
2004-11-05 09:24:38 51°17.345 2°39.051 12.749779 3.996023 34.13302 6.634819
2004-11-05 09:24:42 51°17.345 2°39.052 12.747834 3.994863 34.120556 6.061759
2004-11-05 09:24:47 51°17.344 2°39.052 12.750314 3.996655 34.136934 6.264016
2004-11-05 09:24:49 51°17.344 2°39.053 12.753816 3.985165 34.026726 6.297725
2004-11-05 09:24:57 51°17.342 2°39.055 12.753816 3.985165 34.026726 6.297725
2004-11-05 09:25:02 51°17.341 2°39.056 12.754448 3.999607 34.165072 6.365144
2004-11-05 09:25:07 51°17.34 2°39.056 12.75863 4.005932 34.224673 5.994341
2004-11-05 09:25:12 51°17.339 2°39.057 12.760284 4.003824 34.202449 5.994341
2004-11-05 09:25:15 51°17.339 2°39.058 12.761548 4.00045 34.168876 6.331435
2004-11-05 09:25:22 51°17.338 2°39.058 12.761305 4.001505 34.17822 5.859503
2004-11-05 09:25:28 51°17.337 2°39.059 12.761305 4.001505 34.17822 5.859503
2004-11-05 09:25:32 51°17.336 2°39.059 12.760186 3.998447 34.146962 5.893212
2004-11-05 09:25:38 51°17.335 2°39.06 12.76111 3.997709 34.136404 5.859503
2004-11-05 09:25:42 51°17.334 2°39.06 12.760916 4.003929 34.194271 5.825794
2004-11-05 09:25:46 51°17.333 2°39.06 12.758728 3.998026 34.137303 5.792084
2004-11-05 09:25:51 51°17.332 2°39.061 12.760478 3.994547 34.104155 6.095469
2004-11-05 09:25:58 51°17.331 2°39.061 12.760478 3.994547 34.104155 6.095469
2004-11-05 09:26:02 51°17.33 2°39.062 12.760138 3.98527 34.015785 6.230306
2004-11-05 09:26:08 51°17.329 2°39.062 12.755469 4.001399 34.169451 5.859503
2004-11-05 09:26:12 51°17.328 2°39.063 12.75508 4.000872 34.164427 6.264016
2004-11-05 09:26:18 51°17.327 2°39.063 12.750071 4.003824 34.194678 6.095469
2004-11-05 09:26:22 51°17.327 2°39.064 12.749488 3.992439 34.086179 5.657247
2004-11-05 09:26:28 51°17.326 2°39.065 12.749488 3.992439 34.086179 5.657247
2004-11-05 09:26:30 51°17.325 2°39.065 12.748563 4.001188 34.171675 5.825794
2004-11-05 09:26:38 51°17.324 2°39.066 12.74725 4.000134 34.163744 5.690956
2004-11-05 09:26:42 51°17.323 2°39.067 12.747348 4.003191 34.193593 6.196597
2004-11-05 09:26:48 51°17.322 2°39.067 12.745937 3.996866 34.136828 6.129178
2004-11-05 09:26:52 51°17.322 2°39.068 12.744575 3.997183 34.138431 5.960631
2004-11-05 09:26:54 51°17.321 2°39.068 12.744575 3.997183 34.138431 5.960631
2004-11-05 09:27:02 51°17.32 2°39.07 12.741316 3.993177 34.103775 5.792084
2004-11-05 09:27:06 51°17.319 2°39.07 12.741365 4.002032 34.186775 6.095469
2004-11-05 09:27:12 51°17.319 2°39.071 12.739711 3.999713 34.167489 5.926922
2004-11-05 09:27:16 51°17.318 2°39.072 12.737036 3.996339 34.13674 5.792084
2004-11-05 09:27:22 51°17.317 2°39.072 12.735868 4.002348 34.194736 6.095469
2004-11-05 09:27:26 51°17.316 2°39.074 12.735868 4.002348 34.194736 6.095469
2004-11-05 09:27:32 51°17.315 2°39.075 12.736695 4.000872 34.181369 5.926922
2004-11-05 09:27:38 51°17.314 2°39.076 12.735722 3.999713 34.171725 5.859503
2004-11-05 09:27:42 51°17.313 2°39.076 12.734847 3.986957 34.052243 5.926922
2004-11-05 09:27:48 51°17.312 2°39.077 12.733144 3.998237 34.159065 6.061759
2004-11-05 09:27:50 51°17.312 2°39.078 12.734312 3.998553 34.16208 5.623537
2004-11-05 09:27:56 51°17.311 2°39.078 12.734312 3.998553 34.16208 5.623537
2004-11-05 09:28:02 51°17.31 2°39.08 12.732609 3.982108 34.005329 5.792084
2004-11-05 09:28:06 51°17.31 2°39.08 12.729155 4.000556 34.184005 5.724665
2004-11-05 09:28:12 51°17.309 2°39.081 12.728133 3.996656 34.144693 5.859503
2004-11-05 09:28:16 51°17.308 2°39.082 12.730469 3.999713 34.175962 5.657247
2004-11-05 09:28:22 51°17.307 2°39.083 12.73076 3.998237 34.161888 5.623537
2004-11-05 09:28:28 51°17.307 2°39.084 12.73076 3.998237 34.161888 5.623537
2004-11-05 09:28:32 51°17.306 2°39.085 12.726333 3.993704 34.122193 5.690956
2004-11-05 09:28:36 51°17.306 2°39.085 12.727939 3.998553 34.169141 5.792084
2004-11-05 09:28:42 51°17.305 2°39.087 12.725993 3.992861 34.116268 5.522409
2004-11-05 09:28:48 51°17.304 2°39.087 12.725263 3.996761 34.152051 5.792084
2004-11-05 09:28:52 51°17.304 2°39.088 12.728036 4.00024 34.187348 5.690956
2004-11-05 09:28:56 51°17.303 2°39.088 12.728036 4.00024 34.187348 5.690956
2004-11-05 09:29:02 51°17.303 2°39.089 12.727744 4.002454 34.210586 5.758375
2004-11-05 09:29:08 51°17.302 2°39.09 12.727306 3.982214 34.016877 5.758375
2004-11-05 09:29:12 51°17.301 2°39.091 12.726625 3.997183 34.159602 5.589828
2004-11-05 09:29:18 51°17.301 2°39.091 12.725409 3.999818 34.186153 5.690956
2004-11-05 09:29:22 51°17.3 2°39.092 12.726285 4.002348 34.206752 5.657247
2004-11-05 09:29:28 51°17.3 2°39.093 12.726285 4.002348 34.206752 5.657247
2004-11-05 09:29:30 51°17.3 2°39.093 12.724971 3.998869 34.174983 5.724665
2004-11-05 09:29:50 51°17.297 2°39.096 12.723463 3.999713 34.185147 5.724665
2004-11-05 09:29:56 51°17.296 2°39.098 12.725068 4.002243 34.207161 5.792084
2004-11-05 09:29:58 51°17.297 2°39.097 12.726674 3.999924 34.187158 5.623537
2004-11-05 09:30:06 51°17.295 2°39.099 12.728036 3.996761 34.156993 5.690956
2004-11-05 09:30:12 51°17.295 2°39.1 12.727355 3.988011 34.073556 5.792084
2004-11-05 09:30:16 51°17.295 2°39.1 12.725944 4.000451 34.192893 5.353862
2004-11-05 09:30:28 51°17.293 2°39.102 12.728474 3.984322 34.036974 5.589828
2004-11-05 09:30:32 51°17.293 2°39.102 12.730128 3.991701 34.107326 5.825794
2004-11-05 09:30:38 51°17.292 2°39.103 12.727647 3.994864 34.136073 5.589828
2004-11-05 09:30:42 51°17.292 2°39.104 12.728669 4.002243 34.205039 5.589828
2004-11-05 09:30:48 51°17.291 2°39.105 12.72896 3.994231 34.130746 5.657247
2004-11-05 09:30:52 51°17.291 2°39.105 12.729155 3.998659 34.170853 5.859503
2004-11-05 09:30:56 51°17.29 2°39.105 12.729155 3.998659 34.170853 5.859503
2004-11-05 09:31:02 51°17.289 2°39.106 12.726041 4.001083 34.195392 5.556118
2004-11-05 09:31:08 51°17.288 2°39.106 12.72536 3.994969 34.136372 5.758375
2004-11-05 09:31:12 51°17.288 2°39.107 12.724095 3.994758 34.134362 5.960631
2004-11-05 09:31:18 51°17.287 2°39.108 12.724436 3.996972 34.154767 5.758375
2004-11-05 09:31:22 51°17.287 2°39.108 12.725214 3.99771 34.163923 5.690956
2004-11-05 09:31:28 51°17.286 2°39.109 12.725214 3.99771 34.163923 5.690956
2004-11-05 09:31:32 51°17.285 2°39.109 12.724193 3.988222 34.072749 5.758375
2004-11-05 09:31:38 51°17.284 2°39.11 12.721517 3.994758 34.137184 5.387571
2004-11-05 09:31:42 51°17.283 2°39.11 12.72502 3.982108 34.015873 5.690956
2004-11-05 09:31:48 51°17.283 2°39.111 12.721517 3.999186 34.179413 5.623537
2004-11-05 09:31:52 51°17.282 2°39.111 12.720981 4.000345 34.189767 5.556118
2004-11-05 09:31:58 51°17.281 2°39.112 12.720981 4.000345 34.189767 5.556118
2004-11-05 09:32:02 51°17.281 2°39.112 12.720057 3.99634 34.155089 5.859503
2004-11-05 09:32:08 51°17.28 2°39.113 12.717819 3.996867 34.159411 5.859503
2004-11-05 09:32:12 51°17.279 2°39.113 12.717673 3.991912 34.113568 5.522409
2004-11-05 09:32:18 51°17.279 2°39.114 12.717381 3.998553 34.177619 5.623537
2004-11-05 09:32:22 51°17.278 2°39.115 12.714997 3.996761 34.16123 5.286443
2004-11-05 09:32:28 51°17.277 2°39.116 12.714997 3.996761 34.16123 5.286443
2004-11-05 09:32:32 51°17.276 2°39.116 12.715143 4.001083 34.202463 5.320153
2004-11-05 09:32:38 51°17.276 2°39.116 12.717575 3.997394 34.170796 5.45499
2004-11-05 09:32:42 51°17.275 2°39.117 12.715678 3.999502 34.190911 5.522409
2004-11-05 09:32:46 51°17.274 2°39.117 12.714413 3.999924 34.195642 5.724665
2004-11-05 09:32:52 51°17.273 2°39.117 12.71451 3.992334 34.123939 5.522409
2004-11-05 09:32:58 51°17.273 2°39.118 12.71451 3.992334 34.123939 5.522409
2004-11-05 09:33:02 51°17.272 2°39.119 12.710276 3.995391 34.153807 5.421281
2004-11-05 09:33:08 51°17.271 2°39.119 12.71198 3.996761 34.164762 5.320153
2004-11-05 09:33:12 51°17.27 2°39.119 12.711104 3.992545 34.124538 5.522409
2004-11-05 09:33:18 51°17.269 2°39.119 12.70867 3.997921 34.179359 5.556118
2004-11-05 09:33:22 51°17.269 2°39.119 12.710374 3.992439 34.126356 5.623537
2004-11-05 09:33:26 51°17.268 2°39.119 12.710374 3.992439 34.126356 5.623537
2004-11-05 09:33:32 51°17.268 2°39.12 12.707405 3.996761 34.169708 5.421281
2004-11-05 09:33:38 51°17.266 2°39.12 12.710179 4.000346 34.203909 5.421281
2004-11-05 09:33:42 51°17.266 2°39.121 12.709692 3.980843 34.017879 5.353862
2004-11-05 09:33:46 51°17.265 2°39.121 12.711104 3.998448 34.185802 5.45499
2004-11-05 09:33:52 51°17.264 2°39.121 12.710422 3.989488 34.101022 5.45499
2004-11-05 09:33:58 51°17.264 2°39.122 12.710422 3.989488 34.101022 5.45499
2004-11-05 09:34:00 51°17.264 2°39.122 12.709449 3.998975 34.192953 5.4887
2004-11-05 09:34:08 51°17.262 2°39.123 12.709254 3.992439 34.127767 5.522409
2004-11-05 09:34:12 51°17.262 2°39.124 12.712028 3.997394 34.17645 5.690956
2004-11-05 09:34:18 51°17.261 2°39.125 12.71159 3.998975 34.192246 5.286443
2004-11-05 09:34:22 51°17.261 2°39.125 12.707989 3.995918 34.160955 5.320153
2004-11-05 09:34:28 51°17.26 2°39.126 12.707989 3.995918 34.160955 5.320153
2004-11-05 09:34:32 51°17.26 2°39.126 12.711834 3.997499 34.176749 5.252734
2004-11-05 09:34:38 51°17.259 2°39.127 12.712223 3.995075 34.152203 5.219024
2004-11-05 09:34:42 51°17.258 2°39.128 12.710276 3.997499 34.173215 5.252734
2004-11-05 09:34:48 51°17.258 2°39.129 12.713245 3.989382 34.100016 5.151606
2004-11-05 09:34:52 51°17.259 2°39.13 12.714121 3.991807 34.122439 5.219024
2004-11-05 09:34:58 51°17.259 2°39.132 12.714121 3.991807 34.122439 5.219024
2004-11-05 09:35:02 51°17.259 2°39.135 12.711152 3.99771 34.177347 5.117896
2004-11-05 09:35:08 51°17.26 2°39.138 12.713439 3.996656 34.167289 5.151606
2004-11-05 09:35:12 51°17.261 2°39.139 12.717283 3.998026 34.180365 5.050477
2004-11-05 09:35:18 51°17.263 2°39.143 12.718403 3.996129 34.161554 5.252734
2004-11-05 09:35:22 51°17.264 2°39.146 12.719424 3.998026 34.179658 5.219024
2004-11-05 09:35:28 51°17.267 2°39.15 12.719424 3.998026 34.179658 5.219024
2004-11-05 09:35:32 51°17.268 2°39.152 12.717867 3.99771 34.17664 4.983059
2004-11-05 09:35:38 51°17.271 2°39.157 12.716992 3.9839 34.04351 5.151606
2004-11-05 09:35:42 51°17.273 2°39.16 12.715678 3.998975 34.185176 5.185315
2004-11-05 09:35:48 51°17.277 2°39.165 12.713147 3.993599 34.131771 5.084187
2004-11-05 09:35:52 51°17.279 2°39.168 12.714461 3.997921 34.175118 5.084187
2004-11-05 09:35:58 51°17.283 2°39.174 12.714461 3.997921 34.175118 5.084187
2004-11-05 09:36:02 51°17.285 2°39.177 12.712564 3.989909 34.097287 5.151606
2004-11-05 09:36:08 51°17.289 2°39.183 12.714802 3.998764 34.18175 4.983059
2004-11-05 09:36:24 51°17.3 2°39.199 12.712077 3.991912 34.122033 5.353862
2004-11-05 09:36:30 51°17.304 2°39.205 12.709303 3.984638 34.051955 5.724665
2004-11-05 09:36:34 51°17.307 2°39.209 12.709303 3.984638 34.051955 5.724665
2004-11-05 09:36:38 51°17.309 2°39.214 12.709546 3.99402 34.140028 5.353862
2004-11-05 09:36:42 51°17.312 2°39.218 12.707989 3.994337 34.140927 5.353862
2004-11-05 09:36:48 51°17.316 2°39.224 12.711882 3.997499 34.173215 5.657247
2004-11-05 09:36:54 51°17.321 2°39.231 12.713926 4.000451 34.202086 5.421281
2004-11-05 09:36:58 51°17.323 2°39.236 12.713147 4.000029 34.200891 5.893212
2004-11-05 09:37:04 51°17.328 2°39.242 12.713147 4.000029 34.200891 5.893212
2004-11-05 09:37:08 51°17.331 2°39.247 12.715629 3.999608 34.196867 5.286443
2004-11-05 09:37:14 51°17.335 2°39.254 12.714267 3.998553 34.188222 5.4887
2004-11-05 09:37:18 51°17.338 2°39.259 12.714705 3.999397 34.19627 5.522409
2004-11-05 09:37:22 51°17.341 2°39.264 12.71232 3.996023 34.161961 5.556118
2004-11-05 09:37:28 51°17.345 2°39.271 12.717186 3.999397 34.193441 5.589828
2004-11-05 09:37:34 51°17.349 2°39.277 12.717186 3.999397 34.193441 5.589828
2004-11-05 09:37:46 51°17.358 2°39.292 12.711444 3.993704 34.137011 5.421281
2004-11-05 09:37:50 51°17.361 2°39.297 12.70687 3.98759 34.080104 5.657247
2004-11-05 09:37:56 51°17.366 2°39.304 12.709887 3.99655 34.16487 5.690956
2004-11-05 09:37:58 51°17.367 2°39.307 12.71198 3.997183 34.171611 5.45499
2004-11-05 09:38:06 51°17.374 2°39.316 12.707989 4.000029 34.200891 5.589828
2004-11-05 09:38:10 51°17.376 2°39.321 12.710374 3.998553 34.186808 5.45499
2004-11-05 09:38:14 51°17.379 2°39.327 12.710374 3.998553 34.186808 5.45499
2004-11-05 09:38:18 51°17.383 2°39.331 12.707259 3.99518 34.153915 5.522409
2004-11-05 09:38:26 51°17.389 2°39.342 12.705994 3.993283 34.135812 5.353862
2004-11-05 09:38:28 51°17.39 2°39.345 12.705751 3.998026 34.182486 5.252734
2004-11-05 09:38:36 51°17.397 2°39.355 12.706821 3.993599 34.140241 5.320153
2004-11-05 09:38:38 51°17.399 2°39.358 12.706578 3.99518 34.156741 5.556118
2004-11-05 09:38:46 51°17.406 2°39.369 12.706578 3.99518 34.156741 5.556118
2004-11-05 09:38:50 51°17.409 2°39.374 12.706967 3.994758 34.152717 5.387571
2004-11-05 09:38:56 51°17.415 2°39.381 12.70468 3.996656 34.170823 5.252734
2004-11-05 09:39:00 51°17.419 2°39.386 12.702733 3.993704 34.141953 5.016768
2004-11-05 09:39:06 51°17.424 2°39.393 12.703123 3.995496 34.161171 5.387571
2004-11-05 09:39:10 51°17.428 2°39.398 12.70064 3.994442 34.152526 5.185315
2004-11-05 09:39:16 51°17.434 2°39.405 12.70064 3.994442 34.152526 5.185315
2004-11-05 09:39:20 51°17.438 2°39.41 12.703123 3.994548 34.154944 5.387571
2004-11-05 09:39:26 51°17.444 2°39.416 12.705605 4.00024 34.208564 5.151606
2004-11-05 09:39:28 51°17.446 2°39.418 12.704145 3.99634 34.172046 5.151606
2004-11-05 09:39:48 51°17.467 2°39.436 12.700446 3.995918 34.168022 5.286443
2004-11-05 09:39:50 51°17.469 2°39.438 12.703025 3.994337 34.15152 5.117896
2004-11-05 09:39:58 51°17.477 2°39.446 12.703025 3.994337 34.15152 5.117896
2004-11-05 09:40:02 51°17.481 2°39.449 12.70176 3.995602 34.164297 5.151606
2004-11-05 09:40:08 51°17.488 2°39.453 12.699862 3.992018 34.130097 5.151606
2004-11-05 09:40:10 51°17.49 2°39.456 12.69991 3.99128 34.125175 5.117896
2004-11-05 09:40:18 51°17.499 2°39.461 12.700494 3.994653 34.156657 4.949349
2004-11-05 09:40:22 51°17.503 2°39.465 12.700592 3.996551 34.174765 5.320153
2004-11-05 09:40:28 51°17.51 2°39.469 12.700592 3.996551 34.174765 5.320153
2004-11-05 09:40:32 51°17.513 2°39.471 12.698158 3.99887 34.199021 5.084187
2004-11-05 09:40:38 51°17.519 2°39.474 12.696309 3.994969 34.161795 5.151606
2004-11-05 09:40:42 51°17.522 2°39.476 12.698742 3.99887 34.198314 5.252734
2004-11-05 09:40:46 51°17.525 2°39.477 12.706821 3.995918 34.174385 5.185315
2004-11-05 09:40:52 51°17.529 2°39.48 12.698742 3.994759 34.161196 5.219024
2004-11-05 09:40:58 51°17.532 2°39.482 12.698742 3.994759 34.161196 5.219024
2004-11-05 09:41:02 51°17.534 2°39.484 12.70249 3.998659 34.199131 5.084187
2004-11-05 09:41:08 51°17.536 2°39.486 12.697282 3.98875 34.103858 5.320153
2004-11-05 09:41:12 51°17.538 2°39.488 12.695773 3.991912 34.133328 5.252734
2004-11-05 09:41:18 51°17.539 2°39.49 12.694897 3.994759 34.159076 5.151606
2004-11-05 09:41:24 51°17.54 2°39.492 12.705848 3.994969 34.161088 5.286443
2004-11-05 09:41:28 51°17.541 2°39.493 12.705848 3.994969 34.161088 5.286443
2004-11-05 09:41:32 51°17.542 2°39.493 12.703123 3.996445 34.174466 5.387571
2004-11-05 09:41:36 51°17.542 2°39.494 12.694946 3.993915 34.153148 5.522409
2004-11-05 09:41:42 51°17.543 2°39.495 12.692755 3.992334 34.136646 5.758375
2004-11-05 09:41:48 51°17.543 2°39.496 12.697331 3.997499 34.185941 5.252734
2004-11-05 09:41:52 51°17.543 2°39.497 12.694216 3.994864 34.160082 5.657247
2004-11-05 09:41:58 51°17.543 2°39.498 12.694216 3.994864 34.160082 5.657247
2004-11-05 09:42:02 51°17.542 2°39.5 12.695335 3.994759 34.163317 5.421281
2004-11-05 09:42:08 51°17.541 2°39.5 12.697282 3.994126 34.156573 5.421281
2004-11-05 09:42:12 51°17.541 2°39.5 12.70103 3.995707 34.173786 5.45499
2004-11-05 09:42:17 51°17.541 2°39.501 12.697282 3.997183 34.187874 5.522409
2004-11-05 09:42:22 51°17.541 2°39.501 12.698304 3.99634 34.179117 5.320153
2004-11-05 09:42:28 51°17.54 2°39.502 12.698304 3.99634 34.179117 5.320153
2004-11-05 09:42:32 51°17.539 2°39.503 12.702344 3.99381 34.152142 5.151606
2004-11-05 09:42:38 51°17.539 2°39.504 12.710082 3.996656 34.180721 5.4887
2004-11-05 09:42:42 51°17.538 2°39.504 12.694508 3.99265 34.141782 5.252734
2004-11-05 09:42:46 51°17.538 2°39.504 12.687206 3.995602 34.168538 5.286443
2004-11-05 09:42:52 51°17.537 2°39.505 12.687936 3.996024 34.171856 5.320153
2004-11-05 09:42:56 51°17.537 2°39.506 12.687936 3.996024 34.171856 5.320153
2004-11-05 09:43:02 51°17.536 2°39.507 12.687401 3.989804 34.114622 5.421281
2004-11-05 09:43:06 51°17.536 2°39.507 12.687693 3.992018 34.138572 5.45499
2004-11-05 09:43:12 51°17.536 2°39.507 12.683068 3.99265 34.144608 5.45499
2004-11-05 09:43:16 51°17.535 2°39.508 12.684139 3.991807 34.140092 5.387571
2004-11-05 09:43:20 51°17.535 2°39.508 12.681949 3.987063 34.095525 5.252734
2004-11-05 09:43:32 51°17.534 2°39.51 12.686087 3.991807 34.139385 5.320153
2004-11-05 09:43:34 51°17.534 2°39.51 12.683555 3.994548 34.169082 5.724665
2004-11-05 09:43:40 51°17.533 2°39.51 12.68336 3.994653 34.170795 5.589828
2004-11-05 09:43:46 51°17.532 2°39.511 12.682776 3.991912 34.148872 5.421281
2004-11-05 09:43:52 51°17.532 2°39.512 12.682776 3.991912 34.148872 5.421281
2004-11-05 09:43:56 51°17.531 2°39.513 12.681218 3.994021 34.164757 5.421281
2004-11-05 09:44:02 51°17.53 2°39.514 12.683507 3.992229 34.149063 5.623537
2004-11-05 09:44:06 51°17.53 2°39.514 12.682436 3.990753 34.135682 5.522409
2004-11-05 09:44:28 51°17.526 2°39.516 12.685892 3.983901 34.069578 5.623537
2004-11-05 09:44:32 51°17.526 2°39.516 12.685892 3.983901 34.069578 5.623537
2004-11-05 09:44:38 51°17.525 2°39.518 12.682484 3.995602 34.18056 5.556118
2004-11-05 09:44:44 51°17.524 2°39.517 12.683701 3.991702 34.143325 5.117896
2004-11-05 09:44:48 51°17.524 2°39.518 12.680732 3.995075 34.174821 5.219024
2004-11-05 09:44:52 51°17.523 2°39.518 12.680391 3.994864 34.173515 5.252734
2004-11-05 09:44:58 51°17.522 2°39.519 12.679368 3.991702 34.142618 5.252734
2004-11-05 09:45:04 51°17.522 2°39.519 12.679368 3.991702 34.142618 5.252734
2004-11-05 09:45:08 51°17.521 2°39.519 12.679417 3.99634 34.187605 5.252734
2004-11-05 09:45:12 51°17.521 2°39.52 12.675279 3.990647 34.135382 5.016768
2004-11-05 09:45:28 51°17.519 2°39.521 12.677518 3.993178 34.163777 5.556118
2004-11-05 09:45:32 51°17.518 2°39.521 12.674841 3.990542 34.137909 5.219024
2004-11-05 09:45:38 51°17.518 2°39.521 12.678103 3.986115 34.09635 5.320153
2004-11-05 09:45:42 51°17.517 2°39.522 12.674841 3.993599 34.169218 5.252734
2004-11-05 09:45:46 51°17.516 2°39.522 12.676253 3.991596 34.14868 5.219024
2004-11-05 09:45:52 51°17.515 2°39.522 12.673039 3.993283 34.166198 5.050477
2004-11-05 09:45:58 51°17.514 2°39.522 12.673039 3.993283 34.166198 5.050477
2004-11-05 09:46:02 51°17.514 2°39.522 12.671432 3.993283 34.166906 5.353862
2004-11-05 09:46:08 51°17.513 2°39.522 12.670556 3.994337 34.177679 4.780802
2004-11-05 09:46:12 51°17.512 2°39.522 12.667878 3.993599 34.169926 5.219024
2004-11-05 09:46:18 51°17.512 2°39.523 12.670848 3.990331 34.140843 5.320153
2004-11-05 09:46:24 51°17.511 2°39.523 12.666466 3.992756 34.163995 5.050477
2004-11-05 09:46:26 51°17.51 2°39.524 12.666466 3.992756 34.163995 5.050477
2004-11-05 09:46:32 51°17.509 2°39.524 12.672017 3.991491 34.154744 5.016768
2004-11-05 09:46:38 51°17.508 2°39.524 12.66744 3.993705 34.1773 5.084187
2004-11-05 09:46:42 51°17.508 2°39.525 12.66817 3.988118 34.12324 4.949349